Flight Track Log - Related Links

Times and Time Zones

All times are in EDT time to prevent confusion due to time zone crossing. See the DAL268 flight status page for this flight to view local times or setup timezone preferences in your user account.

Time Position Orientation Groundspeed Altitude Reporting Facility
EDT Latitude Longitude Course Direction KTS MPH feet Rate Location/Type
Thu 09:09:38 PM 40.6360 -73.7800 North  Level FlightAware ADS-B
Thu 09:16:00 PM 40.5833 -73.3077 90° East  Level FlightAware Approximate
Thu 09:17:00 PM 40.5579 -73.1368 97° East  Level FlightAware Approximate
Thu 09:18:00 PM 40.5669 -72.9659 72° East  Level FlightAware Approximate
Thu 09:18:59 PM 40.6350 -73.7790 66° East  Level FlightAware ADS-B
Thu 09:19:00 PM 40.6013 -72.7961 66° East  Level FlightAware Approximate
Thu 09:21:00 PM 40.5915 -73.4159 108° East  Level FlightAware Approximate
Thu 09:22:00 PM 40.5719 -73.2439 123° Southeast  Level FlightAware Approximate
Thu 09:23:00 PM 40.5517 -73.0690 97° East  Level FlightAware Approximate
Thu 09:24:00 PM 40.5831 -72.9010 72° East  Level FlightAware Approximate
Thu 09:25:00 PM 40.6222 -72.7335 66° East  Level FlightAware Approximate
Thu 09:26:00 PM 40.6588 -72.5647 72° East  Level FlightAware Approximate
Thu 09:35:00 PM 40.7743 -73.5111 108° East  Level Estimated
Thu 09:36:21 PM 40.6300 -73.7820 28° Northeast 110 127  Level FlightAware ADS-B
Thu 09:36:41 PM 40.6400 -73.7740 31° Northeast 165 190 1,000 Level FlightAware ADS-B
Thu 09:36:43 PM 40.6420 -73.7720 37° Northeast 169 194 1,714 Level FlightAware ADS-B
Thu 09:37:09 PM 40.6600 -73.7580 31° Northeast 170 196 800 1,742 Climbing FlightAware ADS-B
Thu 09:37:14 PM 40.6630 -73.7540 45° Northeast 171 197 900 1,846 Climbing FlightAware ADS-B
Thu 09:37:22 PM 40.6660 -73.7470 61° Northeast 175 201 1,200 1,875 Climbing FlightAware ADS-B
Thu 09:37:30 PM 40.6680 -73.7390 72° East 183 211 1,400 1,200 Climbing FlightAware ADS-B
Thu 09:37:42 PM 40.6690 -73.7240 85° East 202 232 1,600 894 Climbing FlightAware ADS-B
Thu 09:38:17 PM 40.6690 -73.6770 90° East 239 275 2,100 837 Climbing FlightAware ADS-B
Thu 09:38:25 PM 40.6690 -73.6650 90° East 251 289 2,200 600 Climbing FlightAware ADS-B
Thu 09:38:37 PM 40.6650 -73.6470 106° East 265 305 2,300 1,622 Climbing FlightAware ADS-B
Thu 09:39:02 PM 40.6520 -73.6090 114° Southeast 279 321 3,200 1,773 Climbing FlightAware ADS-B
Thu 09:39:21 PM 40.6410 -73.5800 117° Southeast 288 331 3,600 1,846 Climbing FlightAware ADS-B
Thu 09:39:41 PM 40.6330 -73.5460 107° East 292 336 4,400 2,250 Climbing FlightAware ADS-B
Thu 09:40:01 PM 40.6290 -73.5100 98° East 300 345 5,100 2,500 Climbing FlightAware ADS-B
Thu 09:40:17 PM 40.6260 -73.4820 98° East 300 345 5,900 2,833 Climbing FlightAware ADS-B
Thu 09:40:37 PM 40.6220 -73.4440 98° East 302 348 6,800 2,400 Climbing FlightAware ADS-B
Thu 09:40:57 PM 40.6170 -73.4110 101° East 306 352 7,500 2,400 Climbing FlightAware ADS-B
Thu 09:41:17 PM 40.6130 -73.3740 98° East 305 351 8,400 2,500 Climbing FlightAware ADS-B
Thu 09:41:33 PM 40.6080 -73.3430 102° East 310 357 9,000 2,057 Climbing FlightAware ADS-B
Thu 09:41:52 PM 40.6020 -73.3060 102° East 319 367 9,600 1,500 Climbing FlightAware ADS-B
Thu 09:42:29 PM 40.5900 -73.2340 102° East 346 398 10,400 986 Climbing FlightAware ADS-B
Thu 09:43:05 PM 40.5790 -73.1530 100° East 388 447 10,800 845 Climbing FlightAware ADS-B
Thu 09:43:40 PM 40.5670 -73.0680 101° East 416 479 11,400 1,224 Climbing FlightAware ADS-B
Thu 09:43:54 PM 40.5640 -73.0320 96° East 426 490 11,800 1,615 Climbing FlightAware ADS-B
Thu 09:44:32 PM 40.5760 -72.9490 79° East 434 499 12,800 1,890 Climbing FlightAware ADS-B
Thu 09:45:07 PM 40.6000 -72.8540 72° East 445 512 14,100 2,500 Climbing FlightAware ADS-B
Thu 09:45:32 PM 40.6230 -72.7870 66° East 446 513 15,300 2,492 Climbing FlightAware ADS-B
Thu 09:46:12 PM 40.6770 -72.7050 49° Northeast 444 511 16,800 2,080 Climbing FlightAware ADS-B
Thu 09:46:47 PM 40.7270 -72.6460 42° Northeast 450 518 17,900 2,057 Climbing FlightAware ADS-B
Thu 09:47:22 PM 40.7840 -72.5770 42° Northeast 456 525 19,200 2,167 Climbing FlightAware ADS-B
Thu 09:47:59 PM 40.8440 -72.5070 41° Northeast 460 529 20,500 1,973 Climbing FlightAware ADS-B
Thu 09:48:35 PM 40.9000 -72.4400 42° Northeast 464 534 21,600 1,297 Climbing FlightAware ADS-B
Thu 09:49:13 PM 40.9570 -72.3710 42° Northeast 465 535 22,100 1,187 Climbing FlightAware ADS-B
Thu 09:50:06 PM 41.0410 -72.2710 42° Northeast 476 548 23,400 876 Climbing FlightAware ADS-B
Thu 09:50:42 PM 41.0910 -72.2110 42° Northeast 476 548 23,400 1,775 Level FlightAware ADS-B
Thu 09:51:17 PM 41.1660 -72.1210 42° Northeast 499 574 25,500 2,531 Climbing FlightAware ADS-B
Thu 09:51:46 PM 41.2170 -72.0580 43° Northeast 505 581 26,100 1,233 Climbing FlightAware ADS-B
Thu 09:52:30 PM 41.2920 -71.9680 42° Northeast 511 588 27,000 1,308 Climbing FlightAware ADS-B
Thu 09:53:04 PM 41.3510 -71.8960 42° Northeast 513 590 27,800 1,350 Climbing FlightAware ADS-B
Thu 09:53:50 PM 41.4320 -71.7970 42° Northeast 518 596 28,800 1,537 Climbing FlightAware ADS-B
Thu 09:54:26 PM 41.5000 -71.7140 42° Northeast 513 590 29,900 1,075 Climbing FlightAware ADS-B
Thu 09:54:57 PM 41.5530 -71.6480 43° Northeast 514 592 30,000 86 Climbing FlightAware ADS-B
Thu 09:55:36 PM 41.6210 -71.5640 43° Northeast 513 590 30,000  Level FlightAware ADS-B
Thu 09:56:09 PM 41.6770 -71.4950 43° Northeast 510 587 30,000  Level FlightAware ADS-B
Thu 09:56:41 PM 41.7320 -71.4270 43° Northeast 509 586 30,000 250 Level FlightAware ADS-B
Thu 09:57:21 PM 41.8030 -71.3390 43° Northeast 510 587 30,300 711 Climbing FlightAware ADS-B
Thu 09:57:57 PM 41.8640 -71.2620 43° Northeast 512 589 30,900 656 Climbing FlightAware ADS-B
Thu 09:58:25 PM 41.9140 -71.2010 42° Northeast 512 589 31,000 88 Climbing FlightAware ADS-B
Thu 09:59:05 PM 41.9840 -71.1130 43° Northeast 509 586 31,000 553 Level FlightAware ADS-B
Thu 09:59:41 PM 42.0400 -71.0420 43° Northeast 507 583 31,700 1,147 Climbing FlightAware ADS-B
Thu 10:00:13 PM 42.0960 -70.9710 43° Northeast 506 582 32,300 1,091 Climbing FlightAware ADS-B
Thu 10:00:47 PM 42.1550 -70.8960 43° Northeast 507 583 32,900 500 Climbing FlightAware ADS-B
Thu 10:01:37 PM 42.2400 -70.7870 43° Northeast 508 585 33,000 71 Climbing FlightAware ADS-B
Thu 10:02:12 PM 42.3010 -70.7090 43° Northeast 507 583 33,000  Level FlightAware ADS-B
Thu 10:02:47 PM 42.3600 -70.6320 44° Northeast 499 574 33,000  Level FlightAware ADS-B
Thu 10:03:22 PM 42.4190 -70.5560 44° Northeast 498 573 33,000  Level FlightAware ADS-B
Thu 10:03:57 PM 42.4790 -70.4790 43° Northeast 498 573 33,000  Level FlightAware ADS-B
Thu 10:04:32 PM 42.5370 -70.4040 44° Northeast 497 572 33,000  Level FlightAware ADS-B
Thu 10:05:08 PM 42.5940 -70.3300 44° Northeast 497 572 33,000  Level FlightAware ADS-B
Thu 10:05:42 PM 42.6540 -70.2510 44° Northeast 497 572 33,000  Level FlightAware ADS-B
Thu 10:06:17 PM 42.7120 -70.1760 44° Northeast 497 572 33,000  Level FlightAware ADS-B
Thu 10:07:08 PM 42.7950 -70.0670 44° Northeast 497 572 33,000  Level FlightAware ADS-B
Thu 10:07:42 PM 42.8570 -69.9850 44° Northeast 497 572 33,000  Level FlightAware ADS-B
Thu 10:08:32 PM 42.9400 -69.8750 44° Northeast 496 571 33,000  Level FlightAware ADS-B
Thu 10:09:06 PM 42.9860 -69.8150 44° Northeast 496 571 33,000  Level FlightAware ADS-B
Thu 10:09:42 PM 43.0360 -69.7480 44° Northeast 496 571 33,000  Level FlightAware ADS-B
Thu 10:10:18 PM 43.0870 -69.6810 44° Northeast 496 571 33,000  Level FlightAware ADS-B
Thu 10:11:10 PM 43.1880 -69.5430 45° Northeast 498 573 33,000  Level FlightAware ADS-B
Thu 10:11:56 PM 43.2520 -69.4550 45° Northeast 498 573 33,000  Level FlightAware ADS-B
Thu 10:12:34 PM 43.3050 -69.3830 45° Northeast 498 573 33,000  Level FlightAware ADS-B
Thu 10:13:10 PM 43.3540 -69.3150 45° Northeast 498 573 33,000  Level FlightAware ADS-B
Thu 10:13:46 PM 43.4040 -69.2460 45° Northeast 498 573 33,000  Level FlightAware ADS-B
Thu 10:14:22 PM 43.5140 -69.1040 43° Northeast 502 578 33,000  Level FlightAware ADS-B
Thu 10:15:02 PM 43.5870 -69.0040 45° Northeast 502 578 33,000  Level FlightAware ADS-B
Thu 10:15:42 PM 43.6440 -68.9280 44° Northeast 502 578 33,000  Level FlightAware ADS-B
Thu 10:16:17 PM 43.7040 -68.8440 45° Northeast 503 579 33,000  Level FlightAware ADS-B
Thu 10:16:47 PM 43.7600 -68.7670 45° Northeast 503 579 33,000  Level FlightAware ADS-B
Thu 10:17:27 PM 43.8150 -68.6880 46° Northeast 503 579 33,000  Level FlightAware ADS-B
Thu 10:18:03 PM 43.8640 -68.6170 46° Northeast 503 579 33,000  Level FlightAware ADS-B
Thu 10:18:17 PM 43.9090 -68.5610 42° Northeast 654 753 33,000  Level FlightAware ADS-B
Thu 10:19:28 PM 44.0290 -68.3930 45° Northeast 511 588 33,000  Level FlightAware ADS-B
Thu 10:20:04 PM 44.0880 -68.3110 45° Northeast 512 589 33,000  Level FlightAware ADS-B
Thu 10:20:42 PM 44.1480 -68.2270 45° Northeast 515 593 33,000  Level FlightAware ADS-B
Thu 10:21:14 PM 44.2070 -68.1440 45° Northeast 519 597 33,000  Level FlightAware ADS-B
Thu 10:21:51 PM 44.2690 -68.0570 45° Northeast 522 601 33,000  Level FlightAware ADS-B
Thu 10:22:26 PM 44.3280 -67.9730 46° Northeast 527 606 33,000  Level FlightAware ADS-B
Thu 10:23:03 PM 44.3920 -67.8820 45° Northeast 529 609 33,000  Level FlightAware ADS-B
Thu 10:23:34 PM 44.4450 -67.8060 46° Northeast 531 611 33,000  Level FlightAware ADS-B
Thu 10:24:11 PM 44.5100 -67.7140 45° Northeast 533 613 33,000 -82 Level FlightAware ADS-B
Thu 10:24:47 PM 44.5720 -67.6240 46° Northeast 536 617 32,900 -86 Descending FlightAware ADS-B
Thu 10:25:21 PM 44.6310 -67.5400 45° Northeast 535 616 32,900 86 Level FlightAware ADS-B
Thu 10:25:57 PM 44.6930 -67.4500 46° Northeast 536 617 33,000 88 Climbing FlightAware ADS-B
Thu 10:26:29 PM 44.7500 -67.3690 45° Northeast 536 617 33,000  Level FlightAware ADS-B
Thu 10:27:02 PM 44.8040 -67.2910 46° Northeast 533 613 33,000  Level FlightAware ADS-B
Thu 10:27:37 PM 44.8620 -67.2050 46° Northeast 533 613 33,000  Level FlightAware ADS-B
Thu 10:28:17 PM 44.9330 -67.1030 45° Northeast 529 609 33,000  Level FlightAware ADS-B
Thu 10:28:47 PM 44.9850 -67.0310 44° Northeast 530 610 33,000  Level FlightAware ADS-B
Thu 10:29:27 PM 45.0560 -66.9320 45° Northeast 538 619 33,000  Level FlightAware ADS-B
Thu 10:30:02 PM 45.1180 -66.8450 45° Northeast 542 624 33,000  Level FlightAware ADS-B
Thu 10:30:32 PM 45.1720 -66.7690 45° Northeast 544 626 33,000 188 Level FlightAware ADS-B
Thu 10:31:06 PM 45.2340 -66.6810 45° Northeast 548 631 33,200 720 Climbing FlightAware ADS-B
Thu 10:31:47 PM 45.3060 -66.5780 45° Northeast 547 629 33,900 640 Climbing FlightAware ADS-B
Thu 10:32:21 PM 45.3670 -66.4910 45° Northeast 545 627 34,000 92 Climbing FlightAware ADS-B
Thu 10:32:52 PM 45.4210 -66.4130 45° Northeast 544 626 34,000  Level FlightAware ADS-B
Thu 10:33:31 PM 45.4920 -66.3120 45° Northeast 537 618 34,000  Level FlightAware ADS-B
Thu 10:34:07 PM 45.5540 -66.2220 45° Northeast 538 619 34,000  Level FlightAware ADS-B
Thu 10:34:37 PM 45.6080 -66.1450 45° Northeast 546 628 34,000  Level FlightAware ADS-B
Thu 10:35:12 PM 45.6690 -66.0550 46° Northeast 550 633 34,000  Level FlightAware ADS-B
Thu 10:35:51 PM 45.7400 -65.9520 45° Northeast 553 636 34,000  Level FlightAware ADS-B
Thu 10:36:22 PM 45.7930 -65.8750 45° Northeast 555 639 34,000  Level FlightAware ADS-B
Thu 10:36:57 PM 45.8580 -65.7800 45° Northeast 558 642 34,000  Level FlightAware ADS-B
Thu 10:37:35 PM 45.9170 -65.6950 45° Northeast 558 642 34,000  Level FlightAware ADS-B
Thu 10:38:11 PM 45.9730 -65.6140 45° Northeast 558 642 34,000  Level FlightAware ADS-B
Thu 10:38:44 PM 45.6850 -66.0330 226° Southwest 551 634 34,000  Level FlightAware ADS-B
Thu 10:39:23 PM 45.6260 -66.1200 226° Southwest 551 634 34,000  Level FlightAware ADS-B
Thu 10:39:59 PM 45.5720 -66.2000 226° Southwest 551 634 34,000  Level FlightAware ADS-B
Thu 10:40:35 PM 45.5180 -66.2800 226° Southwest 551 634 34,000  Level FlightAware ADS-B
Thu 10:41:11 PM 45.4630 -66.3600 226° Southwest 551 634 34,000  Level FlightAware ADS-B
Thu 10:41:47 PM 45.4090 -66.4400 226° Southwest 551 634 34,000  Level FlightAware ADS-B
Thu 10:42:24 PM 45.3530 -66.5220 226° Southwest 551 634 34,000  Level FlightAware ADS-B
Thu 10:43:00 PM 45.2990 -66.6020 226° Southwest 551 634 34,000  Level FlightAware ADS-B
Thu 10:43:36 PM 45.2450 -66.6820 226° Southwest 551 634 34,000  Level FlightAware ADS-B
Thu 10:44:12 PM 45.1910 -66.7610 226° Southwest 551 634 34,000  Level FlightAware ADS-B
Thu 10:44:48 PM 45.1370 -66.8410 226° Southwest 551 634 34,000  Level FlightAware ADS-B
Thu 10:45:24 PM 45.0820 -66.9210 226° Southwest 551 634 34,000  Level FlightAware ADS-B
Thu 10:46:00 PM 45.0280 -67.0000 226° Southwest 551 634 34,000  Level FlightAware ADS-B
Thu 10:46:37 PM 44.9730 -67.0810 226° Southwest 551 634 34,000  Level FlightAware ADS-B
Thu 10:47:13 PM 44.9180 -67.1610 226° Southwest 551 634 34,000  Level FlightAware ADS-B
Thu 10:47:49 PM 44.8640 -67.2400 226° Southwest 551 634 34,000  Level FlightAware ADS-B
Thu 10:48:25 PM 44.8100 -67.3190 226° Southwest 551 634 34,000  Level FlightAware ADS-B
Thu 10:48:57 PM 47.1500 -63.8167 226° Southwest 570 656 34,000  Level Gander Center
Thu 10:49:39 PM 47.2333 -63.6833 47° Northeast 570 656 34,000 -59 Level Moncton Center
Thu 10:50:39 PM 47.3333 -63.5000 51° Northeast 570 656 33,900  Descending Moncton Center
Thu 10:51:39 PM 47.4500 -63.3333 44° Northeast 570 656 34,000  Climbing Moncton Center
Thu 10:52:39 PM 47.5500 -63.1500 51° Northeast 570 656 33,900  Descending Moncton Center
Thu 10:53:39 PM 47.6500 -62.9833 48° Northeast 570 656 34,000 50 Climbing Moncton Center
Thu 10:54:39 PM 47.7500 -62.8000 51° Northeast 570 656 34,000  Level Moncton Center
Thu 10:55:39 PM 47.8667 -62.6333 44° Northeast 570 656 34,000  Level Moncton Center
Thu 10:56:39 PM 47.9667 -62.4500 51° Northeast 570 656 34,000  Level Moncton Center
Thu 10:57:39 PM 48.0833 -62.2667 46° Northeast 580 667 34,000  Level Moncton Center
Thu 10:58:39 PM 48.1833 -62.1167 45° Northeast 580 667 34,000  Level Moncton Center
Thu 10:59:39 PM 48.3000 -61.9000 51° Northeast 580 667 34,000  Level Moncton Center
Thu 11:00:39 PM 48.3833 -61.7167 56° Northeast 580 667 34,000 -50 Level Moncton Center
Thu 11:01:39 PM 48.5167 -61.5333 42° Northeast 590 679 33,900  Descending Moncton Center
Thu 11:02:39 PM 48.6167 -61.3500 50° Northeast 580 667 34,000  Climbing Moncton Center
Thu 11:03:39 PM 48.7333 -61.1667 46° Northeast 590 679 33,900  Descending Moncton Center
Thu 11:04:39 PM 48.8333 -60.9833 50° Northeast 590 679 34,000  Climbing Moncton Center
Thu 11:05:39 PM 48.9333 -60.8000 50° Northeast 590 679 33,900  Descending Moncton Center
Thu 11:11:14 PM 49.5270 -59.7710 50° Northeast 600 690 34,000 16 Climbing FlightAware ADS-B
Thu 11:11:59 PM 49.6140 -59.6100 50° Northeast 600 690 34,000  Level FlightAware ADS-B
Thu 11:12:35 PM 49.6690 -59.5100 50° Northeast 600 690 34,000  Level FlightAware ADS-B
Thu 11:13:00 PM 49.7290 -59.3960 51° Northeast 600 690 34,000  Level FlightAware ADS-B
Thu 11:13:40 PM 49.7900 -59.2840 50° Northeast 600 690 34,000  Level FlightAware ADS-B
Thu 11:14:16 PM 49.8440 -59.1830 50° Northeast 600 690 34,000  Level FlightAware ADS-B
Thu 11:14:52 PM 49.8990 -59.0820 50° Northeast 600 690 34,000  Level FlightAware ADS-B
Thu 11:15:28 PM 49.9540 -58.9810 50° Northeast 600 690 34,000  Level FlightAware ADS-B
Thu 11:16:04 PM 50.0080 -58.8790 50° Northeast 600 690 34,000  Level FlightAware ADS-B
Thu 11:16:43 PM 50.1120 -58.6410 56° Northeast 600 690 34,000  Level FlightAware ADS-B
Thu 11:17:18 PM 50.1690 -58.5080 56° Northeast 601 692 34,000  Level FlightAware ADS-B
Thu 11:17:53 PM 50.2240 -58.3820 56° Northeast 601 692 34,000  Level FlightAware ADS-B
Thu 11:18:33 PM 50.2860 -58.2380 56° Northeast 604 695 34,000  Level FlightAware ADS-B
Thu 11:19:08 PM 50.3410 -58.1110 56° Northeast 605 696 34,000  Level FlightAware ADS-B
Thu 11:19:58 PM 50.4180 -57.9340 56° Northeast 606 697 34,000  Level FlightAware ADS-B
Thu 11:20:43 PM 50.4840 -57.7840 55° Northeast 606 697 34,000  Level FlightAware ADS-B
Thu 11:21:19 PM 50.5330 -57.6740 55° Northeast 606 697 34,000  Level FlightAware ADS-B
Thu 11:21:56 PM 50.5840 -57.5600 55° Northeast 606 697 34,000  Level FlightAware ADS-B
Thu 11:22:32 PM 50.6330 -57.4490 55° Northeast 606 697 34,000  Level FlightAware ADS-B
Thu 11:23:08 PM 50.6820 -57.3390 55° Northeast 606 697 34,000  Level FlightAware ADS-B
Thu 11:23:44 PM 50.7310 -57.2280 55° Northeast 606 697 34,000  Level FlightAware ADS-B
Thu 11:24:20 PM 50.7800 -57.1160 55° Northeast 606 697 34,000  Level FlightAware ADS-B
Thu 11:24:56 PM 50.8300 -57.0050 54° Northeast 606 697 34,000  Level FlightAware ADS-B
Thu 11:25:32 PM 50.8790 -56.8940 55° Northeast 606 697 34,000  Level FlightAware ADS-B
Thu 11:26:09 PM 50.9290 -56.7790 55° Northeast 606 697 34,000  Level FlightAware ADS-B
Thu 11:26:45 PM 50.9780 -56.6680 55° Northeast 606 697 34,000  Level FlightAware ADS-B
Thu 11:27:21 PM 51.0280 -56.5560 55° Northeast 606 697 34,000  Level FlightAware ADS-B
Thu 11:27:57 PM 51.0770 -56.4440 55° Northeast 606 697 34,000  Level FlightAware ADS-B
Thu 11:28:33 PM 51.1260 -56.3320 55° Northeast 606 697 34,000  Level FlightAware ADS-B
Thu 11:29:09 PM 51.1750 -56.2200 55° Northeast 606 697 34,000  Level FlightAware ADS-B
Thu 11:29:45 PM 51.2240 -56.1080 55° Northeast 606 697 34,000  Level FlightAware ADS-B
Thu 11:30:29 PM 51.3667 -55.5667 55° Northeast 590 679 34,000 -58 Level Gander Center
Thu 11:31:29 PM 51.4500 -55.3167 62° Northeast 590 679 33,900 -50 Descending Gander Center
Thu 11:32:29 PM 51.5500 -55.1167 51° Northeast 580 667 33,900  Level Gander Center
Thu 11:33:29 PM 51.6333 -54.8833 60° Northeast 590 679 33,900  Level Gander Center
Thu 11:34:29 PM 51.7167 -54.6667 58° Northeast 590 679 33,900  Level Gander Center
Thu 11:35:29 PM 51.8167 -54.4333 55° Northeast 590 679 33,900  Level Gander Center
Thu 11:36:29 PM 51.8833 -54.2333 62° Northeast 580 667 33,900 68 Level Gander Center
Thu 11:36:57 PM 51.9167 -54.0833 68° East 580 667 34,000 194 Climbing Gander Center
Thu 11:37:00 PM 52.2167 -53.3667 68° East 562 647 34,000  Level ETMS Enhanced Traffic Management System
Thu 11:37:57 PM 52.0167 -53.8833 51° Northeast 580 667 34,000  Level Gander Center
Thu 11:38:57 PM 52.1000 -53.6500 60° Northeast 590 679 34,000  Level Gander Center
Thu 11:39:57 PM 52.1667 -53.4167 65° Northeast 590 679 34,000  Level Gander Center
Thu 11:40:57 PM 52.2333 -53.1833 65° Northeast 600 690 34,000  Level Gander Center
Thu 11:41:57 PM 52.3000 -52.9333 66° East 590 679 34,000  Level Gander Center
Thu 11:42:57 PM 52.3667 -52.7000 65° Northeast 580 667 34,000  Level Gander Center
Thu 11:43:57 PM 52.4333 -52.4333 68° East 590 679 34,000 -50 Level Gander Center
Thu 11:44:57 PM 52.4833 -52.2000 71° East 590 679 33,900 -50 Descending Gander Center
Thu 11:45:57 PM 52.5500 -51.9500 66° East 580 667 33,900 50 Level Gander Center
Thu 11:46:57 PM 52.6000 -51.7167 70° East 580 667 34,000  Climbing Gander Center
Thu 11:47:57 PM 52.6667 -51.4500 68° East 590 679 33,900 -50 Descending Gander Center
Thu 11:48:57 PM 52.7167 -51.2167 70° East 590 679 33,900 50 Level Gander Center
Thu 11:49:57 PM 52.7500 -50.9500 78° East 580 667 34,000  Climbing Gander Center
Thu 11:50:57 PM 52.8167 -50.6833 67° East 590 679 33,900  Descending Gander Center
Thu 11:51:57 PM 52.8667 -50.4500 70° East 590 679 34,000  Climbing Gander Center
Thu 11:52:57 PM 52.9333 -50.1833 67° East 590 679 33,900  Descending Gander Center
Thu 11:54:00 PM 53.0000 -50.0000 67° East 558 642 34,000 12 Climbing ETMS Enhanced Traffic Management System
Fri 12:01:00 AM 53.4653 -48.0788 69° East 558 642 34,000  Level FlightAware Transoceanic
Fri 12:02:00 AM 53.5212 -47.8358 69° East 558 642 34,000  Level FlightAware Transoceanic
Fri 12:04:37 AM 53.6653 -47.1967 69° East 558 642 34,000  Level FlightAware Transoceanic
Fri 12:06:00 AM 53.7401 -46.8571 70° East 558 642 34,000  Level FlightAware Transoceanic
Fri 12:07:00 AM 53.7936 -46.6109 70° East 558 642 34,000  Level FlightAware Transoceanic
Fri 12:08:00 AM 53.8466 -46.3640 70° East 558 642 34,000  Level FlightAware Transoceanic
Fri 12:09:00 AM 53.8990 -46.1165 70° East 558 642 34,000  Level FlightAware Transoceanic
Fri 12:10:00 AM 53.9510 -45.8684 71° East 558 642 34,000  Level FlightAware Transoceanic
Fri 12:11:00 AM 54.0024 -45.6197 71° East 558 642 34,000  Level FlightAware Transoceanic
Fri 12:12:00 AM 54.0533 -45.3704 71° East 558 642 34,000  Level FlightAware Transoceanic
Fri 12:13:00 AM 54.1037 -45.1204 71° East 558 642 34,000  Level FlightAware Transoceanic
Fri 12:14:00 AM 54.1536 -44.8699 71° East 558 642 34,000  Level FlightAware Transoceanic
Fri 12:15:00 AM 54.2030 -44.6187 72° East 558 642 34,000  Level FlightAware Transoceanic
Fri 12:16:00 AM 54.2519 -44.3670 72° East 558 642 34,000  Level FlightAware Transoceanic
Fri 12:17:00 AM 54.3002 -44.1146 72° East 558 642 34,000  Level FlightAware Transoceanic
Fri 12:18:00 AM 54.3479 -43.8617 72° East 558 642 34,000  Level FlightAware Transoceanic
Fri 12:19:00 AM 54.3952 -43.6082 72° East 558 642 34,000  Level FlightAware Transoceanic
Fri 12:20:00 AM 54.4419 -43.3541 73° East 558 642 34,000  Level FlightAware Transoceanic
Fri 12:21:00 AM 54.4881 -43.0994 73° East 558 642 34,000  Level FlightAware Transoceanic
Fri 12:22:00 AM 54.5338 -42.8442 73° East 558 642 34,000  Level FlightAware Transoceanic
Fri 12:23:00 AM 54.5789 -42.5884 73° East 558 642 34,000  Level FlightAware Transoceanic
Fri 12:24:00 AM 54.6235 -42.3320 73° East 558 642 34,000  Level FlightAware Transoceanic
Fri 12:25:00 AM 54.6675 -42.0750 74° East 558 642 34,000  Level FlightAware Transoceanic
Fri 12:26:00 AM 54.7110 -41.8176 74° East 558 642 34,000  Level FlightAware Transoceanic
Fri 12:27:00 AM 54.7539 -41.5595 74° East 558 642 34,000  Level FlightAware Transoceanic
Fri 12:28:00 AM 54.7963 -41.3009 74° East 558 642 34,000  Level FlightAware Transoceanic
Fri 12:29:00 AM 54.8382 -41.0418 74° East 558 642 34,000  Level FlightAware Transoceanic
Fri 12:30:00 AM 54.8795 -40.7821 75° East 558 642 34,000  Level FlightAware Transoceanic
Fri 12:31:00 AM 54.9202 -40.5219 75° East 558 642 34,000  Level FlightAware Transoceanic
Fri 12:32:00 AM 54.9604 -40.2612 75° East 558 642 34,000  Level FlightAware Transoceanic
Fri 12:33:00 AM 54.9970 -40.0202 75° East  Level FlightAware Approximate
Fri 12:34:00 AM 55.0331 -39.7787 75° East  Level FlightAware Approximate
Fri 12:34:00 AM 55.0000 -40.0000 86° East 557 641 34,000  Level ETMS Enhanced Traffic Management System
Fri 12:35:00 AM 55.0083 -39.7927 86° East  Level FlightAware Approximate
Fri 12:36:00 AM 55.0179 -39.5441 86° East  Level FlightAware Approximate
Fri 12:37:00 AM 55.0269 -39.2954 86° East  Level FlightAware Approximate
Fri 12:38:00 AM 55.0354 -39.0466 86° East  Level FlightAware Approximate
Fri 12:39:00 AM 55.0434 -38.7977 87° East  Level FlightAware Approximate
Fri 12:40:00 AM 55.0629 -38.1114 87° East 557 641 34,000  Level FlightAware Transoceanic
Fri 12:41:00 AM 55.0695 -37.8411 88° East 557 641 34,000  Level FlightAware Transoceanic
Fri 12:42:00 AM 55.0755 -37.5708 88° East 557 641 34,000  Level FlightAware Transoceanic
Fri 12:43:00 AM 55.0809 -37.3004 88° East 557 641 34,000  Level FlightAware Transoceanic
Fri 12:44:00 AM 55.0857 -37.0299 88° East 557 641 34,000  Level FlightAware Transoceanic
Fri 12:45:00 AM 55.0899 -36.7594 89° East 557 641 34,000  Level FlightAware Transoceanic
Fri 12:46:00 AM 55.0935 -36.4888 89° East 557 641 34,000  Level FlightAware Transoceanic
Fri 12:47:00 AM 55.0965 -36.2182 89° East 557 641 34,000  Level FlightAware Transoceanic
Fri 12:48:00 AM 55.0989 -35.9475 89° East 557 641 34,000  Level FlightAware Transoceanic
Fri 12:49:00 AM 55.1007 -35.6768 89° East 557 641 34,000  Level FlightAware Transoceanic
Fri 12:50:00 AM 55.1019 -35.4061 90° East 557 641 34,000  Level FlightAware Transoceanic
Fri 12:51:00 AM 55.1025 -35.1354 90° East 557 641 34,000  Level FlightAware Transoceanic
Fri 12:52:00 AM 55.1025 -34.8646 90° East 557 641 34,000  Level FlightAware Transoceanic
Fri 12:53:00 AM 55.1019 -34.5939 90° East 557 641 34,000  Level FlightAware Transoceanic
Fri 12:54:00 AM 55.1007 -34.3232 91° East 557 641 34,000  Level FlightAware Transoceanic
Fri 12:55:00 AM 55.0989 -34.0525 91° East 557 641 34,000  Level FlightAware Transoceanic
Fri 12:56:00 AM 55.0965 -33.7818 91° East 557 641 34,000  Level FlightAware Transoceanic
Fri 12:57:00 AM 55.0935 -33.5112 91° East 557 641 34,000  Level FlightAware Transoceanic
Fri 12:58:00 AM 55.0899 -33.2406 91° East 557 641 34,000  Level FlightAware Transoceanic
Fri 12:59:00 AM 55.0857 -32.9701 92° East 557 641 34,000  Level FlightAware Transoceanic
Fri 01:00:00 AM 55.0809 -32.6996 92° East 557 641 34,000  Level FlightAware Transoceanic
Fri 01:01:00 AM 55.0755 -32.4292 92° East 557 641 34,000  Level FlightAware Transoceanic
Fri 01:02:00 AM 55.0695 -32.1589 92° East 557 641 34,000  Level FlightAware Transoceanic
Fri 01:03:00 AM 55.0629 -31.8886 93° East 557 641 34,000  Level FlightAware Transoceanic
Fri 01:04:00 AM 55.0557 -31.6185 93° East 557 641 34,000  Level FlightAware Transoceanic
Fri 01:05:00 AM 55.0479 -31.3484 93° East 557 641 34,000  Level FlightAware Transoceanic
Fri 01:06:00 AM 55.0395 -31.0785 93° East 557 641 34,000  Level FlightAware Transoceanic
Fri 01:07:00 AM 55.0305 -30.8087 93° East 557 641 34,000  Level FlightAware Transoceanic
Fri 01:08:00 AM 55.0210 -30.5390 94° East 557 641 34,000  Level FlightAware Transoceanic
Fri 01:09:00 AM 55.0108 -30.2694 94° East 557 641 34,000  Level FlightAware Transoceanic
Fri 01:10:00 AM 55.0009 -30.0209 94° East  Level FlightAware Approximate
Fri 01:11:00 AM 54.9904 -29.7726 94° East  Level FlightAware Approximate
Fri 01:12:00 AM 54.9881 -29.7940 96° East  Level FlightAware Approximate
Fri 01:12:00 AM 55.0000 -30.0000 96° East 543 625 34,000  Level ETMS Enhanced Traffic Management System
Fri 01:13:00 AM 54.9733 -29.5460 96° East  Level FlightAware Approximate
Fri 01:14:00 AM 54.9580 -29.2981 96° East  Level FlightAware Approximate
Fri 01:15:00 AM 54.9421 -29.0505 96° East  Level FlightAware Approximate
Fri 01:16:00 AM 54.9258 -28.8030 96° East  Level FlightAware Approximate
Fri 01:17:00 AM 54.9090 -28.5558 97° East  Level FlightAware Approximate
Fri 01:18:00 AM 54.8430 -27.6517 98° East 543 625 34,000  Level FlightAware Transoceanic
Fri 01:19:00 AM 54.8228 -27.3920 98° East 543 625 34,000  Level FlightAware Transoceanic
Fri 01:20:00 AM 54.8020 -27.1325 98° East 543 625 34,000  Level FlightAware Transoceanic
Fri 01:21:00 AM 54.7807 -26.8733 98° East 543 625 34,000  Level FlightAware Transoceanic
Fri 01:22:00 AM 54.7588 -26.6144 98° East 543 625 34,000  Level FlightAware Transoceanic
Fri 01:23:00 AM 54.7364 -26.3558 99° East 543 625 34,000  Level FlightAware Transoceanic
Fri 01:24:00 AM 54.7134 -26.0975 99° East 543 625 34,000  Level FlightAware Transoceanic
Fri 01:25:00 AM 54.6899 -25.8394 99° East 543 625 34,000  Level FlightAware Transoceanic
Fri 01:26:00 AM 54.6658 -25.5817 99° East 543 625 34,000  Level FlightAware Transoceanic
Fri 01:27:00 AM 54.6412 -25.3242 99° East 543 625 34,000  Level FlightAware Transoceanic
Fri 01:28:00 AM 54.6160 -25.0671 100° East 543 625 34,000  Level FlightAware Transoceanic
Fri 01:29:00 AM 54.5903 -24.8103 100° East 543 625 34,000  Level FlightAware Transoceanic
Fri 01:30:00 AM 54.5640 -24.5538 100° East 543 625 34,000  Level FlightAware Transoceanic
Fri 01:31:00 AM 54.5372 -24.2977 100° East 543 625 34,000  Level FlightAware Transoceanic
Fri 01:32:00 AM 54.5099 -24.0419 101° East 543 625 34,000  Level FlightAware Transoceanic
Fri 01:33:00 AM 54.4820 -23.7865 101° East 543 625 34,000  Level FlightAware Transoceanic
Fri 01:34:00 AM 54.4536 -23.5314 101° East 543 625 34,000  Level FlightAware Transoceanic
Fri 01:35:00 AM 54.4246 -23.2766 101° East 543 625 34,000  Level FlightAware Transoceanic
Fri 01:36:00 AM 54.3951 -23.0222 101° East 543 625 34,000  Level FlightAware Transoceanic
Fri 01:37:00 AM 54.3651 -22.7682 102° East 543 625 34,000  Level FlightAware Transoceanic
Fri 01:38:00 AM 54.3345 -22.5146 102° East 543 625 34,000  Level FlightAware Transoceanic
Fri 01:39:00 AM 54.3035 -22.2613 102° East 543 625 34,000  Level FlightAware Transoceanic
Fri 01:40:00 AM 54.2718 -22.0085 102° East 543 625 34,000  Level FlightAware Transoceanic
Fri 01:41:00 AM 54.2397 -21.7560 102° East 543 625 34,000  Level FlightAware Transoceanic
Fri 01:42:00 AM 54.2070 -21.5039 103° East 543 625 34,000  Level FlightAware Transoceanic
Fri 01:43:00 AM 54.1738 -21.2522 103° East 543 625 34,000  Level FlightAware Transoceanic
Fri 01:44:00 AM 54.1401 -21.0009 103° East 543 625 34,000  Level FlightAware Transoceanic
Fri 01:45:00 AM 54.1059 -20.7501 103° East 543 625 34,000  Level FlightAware Transoceanic
Fri 01:46:00 AM 54.0711 -20.4996 103° East 543 625 34,000  Level FlightAware Transoceanic
Fri 01:47:00 AM 54.0358 -20.2496 104° East 543 625 34,000 63 Level FlightAware Transoceanic
Fri 01:48:00 AM 54.0019 -20.0130 104° East  Level FlightAware Approximate
Fri 01:49:00 AM 53.9674 -19.7768 104° East  Level FlightAware Approximate
Fri 01:50:00 AM 53.9776 -19.7867 100° East  Level FlightAware Approximate
Fri 01:51:00 AM 53.9520 -19.5474 100° East  Level FlightAware Approximate
Fri 01:52:00 AM 53.9258 -19.3084 100° East  Level FlightAware Approximate
Fri 01:53:00 AM 53.8993 -19.0697 101° East  Level FlightAware Approximate
Fri 01:54:00 AM 53.8722 -18.8313 101° East  Level FlightAware Approximate
Fri 01:55:00 AM 53.8447 -18.5932 101° East  Level FlightAware Approximate
Fri 01:56:00 AM 53.8167 -18.3554 101° East  Level FlightAware Approximate
Fri 01:57:00 AM 53.7882 -18.1180 101° East  Level FlightAware Approximate
Fri 01:58:00 AM 53.7593 -17.8808 102° East  Level FlightAware Approximate
Fri 01:59:00 AM 53.7299 -17.6440 102° East  Level FlightAware Approximate
Fri 02:00:00 AM 53.7000 -17.4075 102° East  Level FlightAware Approximate
Fri 02:01:00 AM 53.6697 -17.1714 102° East  Level FlightAware Approximate
Fri 02:02:00 AM 53.6389 -16.9356 102° East  Level FlightAware Approximate
Fri 02:03:00 AM 53.6076 -16.7002 103° East  Level FlightAware Approximate
Fri 02:04:00 AM 53.5759 -16.4651 103° East  Level FlightAware Approximate
Fri 02:05:00 AM 53.5437 -16.2304 103° East  Level FlightAware Approximate
Fri 02:06:00 AM 53.5111 -15.9960 103° East  Level FlightAware Approximate
Fri 02:07:00 AM 53.4780 -15.7619 103° East  Level FlightAware Approximate
Fri 02:08:00 AM 53.4444 -15.5283 103° East  Level FlightAware Approximate
Fri 02:09:00 AM 53.4104 -15.2950 104° East  Level FlightAware Approximate
Fri 02:10:00 AM 53.3759 -15.0621 104° East  Level FlightAware Approximate
Fri 02:11:00 AM 53.3414 -14.8294 104° East  Level FlightAware Approximate
Fri 02:12:00 AM 53.3065 -14.5971 104° East  Level FlightAware Approximate
Fri 02:13:00 AM 53.2711 -14.3651 104° East  Level FlightAware Approximate
Fri 02:14:00 AM 53.2354 -14.1336 104° East  Level FlightAware Approximate
Fri 02:15:00 AM 53.1991 -13.9024 105° East  Level FlightAware Approximate
Fri 02:16:00 AM 53.1624 -13.6716 105° East  Level FlightAware Approximate
Fri 02:17:00 AM 53.1253 -13.4412 105° East  Level FlightAware Approximate
Fri 02:17:59 AM 52.7990 -12.8650 105° East 520 598 36,000  Level FlightAware ADS-B
Fri 02:18:00 AM 53.0877 -13.2108 105° East  Level FlightAware Approximate
Fri 02:18:40 AM 52.7830 -12.7290 101° East 520 598 36,000  Level FlightAware ADS-B
Fri 02:19:15 AM 52.7580 -12.5600 104° East 519 597 36,000  Level FlightAware ADS-B
Fri 02:19:55 AM 52.7370 -12.4030 102° East 519 597 36,000  Level FlightAware ADS-B
Fri 02:20:30 AM 52.7210 -12.2820 102° East 518 596 36,000  Level FlightAware ADS-B
Fri 02:21:00 AM 52.7050 -12.1650 103° East 518 596 36,000  Level FlightAware ADS-B
Fri 02:21:40 AM 52.6810 -11.9970 103° East 517 595 36,000  Level FlightAware ADS-B
Fri 02:22:15 AM 52.6640 -11.8740 103° East 517 595 36,000  Level FlightAware ADS-B
Fri 02:22:45 AM 52.6460 -11.7480 103° East 517 595 36,000  Level FlightAware ADS-B
Fri 02:23:32 AM 52.6220 -11.5770 103° East 515 593 36,000  Level FlightAware ADS-B
Fri 02:24:07 AM 52.6030 -11.4480 104° East 515 593 36,000  Level FlightAware ADS-B
Fri 02:24:43 AM 52.5830 -11.3060 103° East 517 595 36,000  Level FlightAware ADS-B
Fri 02:25:13 AM 52.5650 -11.1890 104° East 518 596 36,000  Level FlightAware ADS-B
Fri 02:25:58 AM 52.5410 -11.0250 103° East 519 597 36,000  Level FlightAware ADS-B
Fri 02:26:30 AM 52.5210 -10.8930 104° East 516 594 36,000  Level FlightAware ADS-B
Fri 02:27:10 AM 52.4980 -10.7380 104° East 515 593 36,000  Level FlightAware ADS-B
Fri 02:27:47 AM 52.4790 -10.6120 104° East 515 593 36,000  Level FlightAware ADS-B
Fri 02:28:27 AM 52.4530 -10.4470 104° East 515 593 36,000  Level FlightAware ADS-B
Fri 02:28:58 AM 52.4370 -10.3400 104° East 516 594 36,000  Level FlightAware ADS-B
Fri 02:29:33 AM 52.4150 -10.1990 104° East 514 592 36,000  Level FlightAware ADS-B
Fri 02:30:13 AM 52.3910 -10.0440 104° East 512 589 36,000  Level FlightAware ADS-B
Fri 02:30:43 AM 52.3750 -9.9480 105° East 511 588 36,000  Level FlightAware ADS-B
Fri 02:31:18 AM 52.3530 -9.8070 104° East 511 588 36,000  Level FlightAware ADS-B
Fri 02:31:53 AM 52.3320 -9.6770 105° East 510 587 36,000  Level FlightAware ADS-B
Fri 02:32:33 AM 52.3070 -9.5260 105° East 509 586 36,000  Level FlightAware ADS-B
Fri 02:33:03 AM 52.2890 -9.4150 105° East 508 585 36,000  Level FlightAware ADS-B
Fri 02:33:38 AM 52.2690 -9.2920 105° East 508 585 36,000  Level FlightAware ADS-B
Fri 02:34:13 AM 52.2470 -9.1590 105° East 509 586 36,000 -91 Level FlightAware ADS-B
Fri 02:34:44 AM 52.2191 -8.9814 105° East 508 585 35,900  Descending FlightAware UK
Fri 02:34:53 AM 52.2210 -9.0060 105° East 510 587 36,000 154 Climbing FlightAware ADS-B
Fri 02:35:23 AM 52.2030 -8.8970 105° East 511 588 36,000  Level FlightAware ADS-B
Fri 02:35:58 AM 52.1820 -8.7740 106° East 512 589 36,000  Level FlightAware ADS-B
Fri 02:36:33 AM 52.1580 -8.6370 106° East 512 589 36,000  Level FlightAware ADS-B
Fri 02:37:13 AM 52.1330 -8.4930 106° East 514 592 36,000  Level FlightAware ADS-B
Fri 02:37:43 AM 52.1140 -8.3790 106° East 513 590 36,000 -194 Level FlightAware ADS-B
Fri 02:37:44 AM 52.1049 -8.3156 106° East 513 590 35,900 -194 Descending FlightAware UK
Fri 02:38:14 AM 52.0854 -8.2038 106° East 513 590 35,900 176 Level FlightAware UK
Fri 02:38:18 AM 52.0910 -8.2510 106° East 512 589 36,000 154 Climbing FlightAware ADS-B
Fri 02:38:53 AM 52.0680 -8.1220 106° East 510 587 36,000  Level FlightAware ADS-B
Fri 02:39:33 AM 52.0430 -7.9770 106° East 508 585 36,000  Level FlightAware ADS-B
Fri 02:40:03 AM 52.0220 -7.8630 107° East 507 583 36,000  Level FlightAware ADS-B
Fri 02:40:39 AM 52.0000 -7.7370 106° East 506 582 36,000  Level FlightAware ADS-B
Fri 02:41:13 AM 51.9760 -7.6090 107° East 506 582 36,000  Level FlightAware ADS-B
Fri 02:41:48 AM 51.9540 -7.4850 106° East 505 581 36,000  Level FlightAware ADS-B
Fri 02:42:23 AM 51.9290 -7.3520 107° East 505 581 36,000 -81 Level FlightAware ADS-B
Fri 02:43:02 AM 51.8953 -7.1561 107° East 504 580 35,900  Descending FlightAware UK
Fri 02:43:03 AM 51.9030 -7.2100 107° East 506 582 36,000  Climbing FlightAware ADS-B
Fri 02:43:33 AM 51.8750 -7.0475 107° East 506 582 35,900  Descending FlightAware UK
Fri 02:43:33 AM 51.8820 -7.1010 107° East 505 581 36,000  Climbing FlightAware ADS-B
Fri 02:44:03 AM 51.8548 -6.9396 107° East 510 587 35,900  Descending FlightAware UK
Fri 02:44:08 AM 51.8600 -6.9810 107° East 505 581 36,000 140 Climbing FlightAware ADS-B
Fri 02:44:46 AM 51.8320 -6.8360 107° East 504 580 36,000  Level FlightAware ADS-B
Fri 02:45:20 AM 51.8090 -6.7110 107° East 503 579 36,000  Level FlightAware ADS-B
Fri 02:45:55 AM 51.7890 -6.5810 104° East 507 583 36,000  Level FlightAware ADS-B
Fri 02:46:32 AM 51.7820 -6.4450 95° East 508 585 36,000 -88 Level FlightAware ADS-B
Fri 02:47:03 AM 51.7702 -6.2806 95° East 506 582 35,900  Descending FlightAware UK
Fri 02:47:07 AM 51.7760 -6.3120 95° East 505 581 36,000 133 Climbing FlightAware ADS-B
Fri 02:47:48 AM 51.7710 -6.1640 93° East 504 580 36,000  Level FlightAware ADS-B
Fri 02:48:25 AM 51.7650 -6.0260 94° East 505 581 36,000  Level FlightAware ADS-B
Fri 02:48:58 AM 51.7600 -5.8960 94° East 504 580 36,000  Level FlightAware ADS-B
Fri 02:49:32 AM 51.7550 -5.7680 94° East 504 580 36,000 -171 Level FlightAware ADS-B
Fri 02:49:33 AM 51.7488 -5.7197 94° East 508 585 35,900 -194 Descending FlightAware UK
Fri 02:50:03 AM 51.7442 -5.6079 94° East 508 585 35,900 167 Level FlightAware UK
Fri 02:50:09 AM 51.7490 -5.6340 94° East 501 577 36,000  Climbing FlightAware ADS-B
Fri 02:50:39 AM 51.7383 -5.4744 94° East 506 582 35,900  Descending FlightAware UK
Fri 02:50:50 AM 51.7420 -5.4790 94° East 499 574 36,000  Climbing FlightAware ADS-B
Fri 02:51:21 AM 51.7313 -5.3198 94° East 506 582 35,900  Descending FlightAware UK
Fri 02:51:23 AM 51.7370 -5.3610 94° East 497 572 36,000 146 Climbing FlightAware ADS-B
Fri 02:52:02 AM 51.7300 -5.2130 94° East 494 568 36,000  Level FlightAware ADS-B
Fri 02:52:34 AM 51.7250 -5.0940 94° East 492 566 36,000  Level FlightAware ADS-B
Fri 02:53:10 AM 51.7180 -4.9640 95° East 490 564 36,000  Level FlightAware ADS-B
Fri 02:53:47 AM 51.7110 -4.8290 95° East 489 563 36,000  Level FlightAware ADS-B
Fri 02:54:18 AM 51.7060 -4.7180 94° East 489 563 36,000  Level FlightAware ADS-B
Fri 02:54:54 AM 51.6990 -4.5840 95° East 490 564 36,000  Level FlightAware ADS-B
Fri 02:55:29 AM 51.6920 -4.4590 95° East 490 564 36,000 -87 Level FlightAware ADS-B
Fri 02:56:03 AM 51.6806 -4.2965 95° East 494 568 35,900  Descending FlightAware UK
Fri 02:56:06 AM 51.6850 -4.3230 95° East 489 563 36,000 167 Climbing FlightAware ADS-B
Fri 02:56:39 AM 51.6780 -4.2040 95° East 490 564 36,000 -95 Level FlightAware ADS-B
Fri 02:57:09 AM 51.6675 -4.0583 95° East 496 571 35,900  Descending FlightAware UK
Fri 02:57:13 AM 51.6720 -4.0840 95° East 492 566 36,000 140 Climbing FlightAware ADS-B
Fri 02:57:52 AM 51.6630 -3.9410 96° East 491 565 36,000  Level FlightAware ADS-B
Fri 02:58:24 AM 51.6560 -3.8200 95° East 491 565 36,000  Level FlightAware ADS-B
Fri 02:58:59 AM 51.6490 -3.6950 95° East 492 566 36,000  Level FlightAware ADS-B
Fri 02:59:34 AM 51.6410 -3.5670 96° East 492 566 36,000  Level FlightAware ADS-B
Fri 03:00:11 AM 51.6330 -3.4350 96° East 495 570 36,000  Level FlightAware ADS-B
Fri 03:00:43 AM 51.6250 -3.3130 96° East 498 573 36,000 -176 Level FlightAware ADS-B
Fri 03:00:45 AM 51.6208 -3.2728 96° East 494 568 35,900 -188 Descending FlightAware UK
Fri 03:01:15 AM 51.6138 -3.1623 96° East 490 564 35,900 167 Level FlightAware UK
Fri 03:01:21 AM 51.6170 -3.1810 96° East 499 574 36,000 150 Climbing FlightAware ADS-B
Fri 03:01:55 AM 51.6080 -3.0464 96° East 502 578 36,000  Level FlightAware ADS-B
Fri 03:02:28 AM 51.6000 -2.9254 96° East 503 579 36,000  Level FlightAware ADS-B
Fri 03:02:58 AM 51.5926 -2.8138 96° East 503 579 36,000  Level FlightAware ADS-B
Fri 03:03:33 AM 51.5838 -2.6860 96° East 500 575 36,000  Level FlightAware ADS-B
Fri 03:04:07 AM 51.5753 -2.5609 96° East 496 571 36,000  Level FlightAware ADS-B
Fri 03:04:37 AM 51.5674 -2.4493 96° East 493 567 36,000  Level FlightAware ADS-B
Fri 03:05:09 AM 51.5592 -2.3337 96° East 490 564 36,000  Level FlightAware ADS-B
Fri 03:05:41 AM 51.5509 -2.2196 97° East 488 562 36,000  Level FlightAware ADS-B
Fri 03:06:14 AM 51.5421 -2.1014 97° East 486 559 36,000  Level FlightAware ADS-B
Fri 03:06:45 AM 51.5341 -1.9914 97° East 484 557 36,000  Level FlightAware ADS-B
Fri 03:07:15 AM 51.5260 -1.8845 97° East 481 554 36,000  Level FlightAware ADS-B
Fri 03:07:46 AM 51.5178 -1.7756 97° East 479 551 36,000  Level FlightAware ADS-B
Fri 03:08:16 AM 51.5095 -1.6685 97° East 476 548 36,000  Level FlightAware ADS-B
Fri 03:08:47 AM 51.5011 -1.5601 97° East 475 547 36,000  Level FlightAware ADS-B
Fri 03:09:20 AM 51.4920 -1.4457 97° East 474 545 36,000  Level FlightAware ADS-B
Fri 03:09:56 AM 51.4820 -1.3213 97° East 472 543 36,000  Level FlightAware ADS-B
Fri 03:10:27 AM 51.4733 -1.2145 97° East 472 543 36,000  Level FlightAware ADS-B
Fri 03:10:58 AM 51.4646 -1.1053 97° East 472 543 36,000  Level FlightAware ADS-B
Fri 03:11:45 AM 51.4515 -0.9449 97° East 469 540 36,000  Level FlightAware ADS-B
Fri 03:12:15 AM 51.4427 -0.8405 98° East 466 536 36,000 -97 Level FlightAware ADS-B
Fri 03:12:47 AM 51.4338 -0.7346 98° East 462 532 35,900  Descending FlightAware ADS-B
Fri 03:13:17 AM 51.4250 -0.6315 98° East 460 529 36,000 98 Climbing FlightAware ADS-B
Fri 03:13:48 AM 51.4159 -0.5273 98° East 459 528 36,000  Level FlightAware ADS-B
Fri 03:14:19 AM 51.4070 -0.4243 98° East 461 531 36,000  Level FlightAware ADS-B
Fri 03:14:56 AM 51.3959 -0.2978 98° East 465 535 36,000  Level FlightAware ADS-B
Fri 03:15:28 AM 51.3861 -0.1871 98° East 467 537 36,000  Level FlightAware ADS-B
Fri 03:15:59 AM 51.3768 -0.0841 98° East 467 537 36,000  Level FlightAware ADS-B
Fri 03:16:32 AM 51.3663 0.0304 98° East 468 539 36,000 -92 Level FlightAware ADS-B
Fri 03:17:04 AM 51.3564 0.1388 98° East 467 537 35,900  Descending FlightAware ADS-B
Fri 03:17:35 AM 51.3464 0.2447 99° East 468 539 36,000 97 Climbing FlightAware ADS-B
Fri 03:18:06 AM 51.3366 0.3510 98° East 469 540 36,000 -98 Level FlightAware ADS-B
Fri 03:18:36 AM 51.3231 0.4787 98° East 490 564 35,900  Descending FlightAware UK
Fri 03:18:53 AM 51.3215 0.5100 98° East 468 539 36,000 125 Climbing FlightAware ADS-B
Fri 03:19:24 AM 51.3113 0.6181 99° East 469 540 36,000  Level FlightAware ADS-B
Fri 03:19:54 AM 51.3013 0.7212 99° East 471 542 36,000  Level FlightAware ADS-B
Fri 03:20:28 AM 51.2900 0.8372 99° East 472 543 36,000  Level FlightAware ADS-B
Fri 03:20:59 AM 51.2795 0.9438 99° East 473 544 36,000 -80 Level FlightAware ADS-B
Fri 03:21:43 AM 51.2599 1.1189 99° East 494 568 35,900 -111 Descending FlightAware UK
Fri 03:21:53 AM 51.2610 1.1300 99° East 471 542 35,900  Level FlightAware ADS-B
Fri 03:22:25 AM 51.2500 1.2370 99° East 470 541 35,900 87 Level FlightAware ADS-B
Fri 03:23:02 AM 51.2370 1.3630 99° East 470 541 36,000  Climbing FlightAware ADS-B
Fri 03:23:37 AM 51.2250 1.4850 99° East 469 540 35,900  Descending FlightAware ADS-B
Fri 03:24:09 AM 51.2090 1.5850 104° East 448 516 36,000  Climbing FlightAware ADS-B
Fri 03:24:46 AM 51.1740 1.6980 116° Southeast 444 511 35,900  Descending FlightAware ADS-B (CYTZ)
Fri 03:25:18 AM 51.1470 1.7930 114° Southeast 448 516 36,000 82 Climbing FlightAware ADS-B
Fri 03:25:59 AM 51.1150 1.9130 113° Southeast 448 516 36,000  Level FlightAware ADS-B
Fri 03:26:32 AM 51.0870 2.0170 113° Southeast 444 511 36,000 -88 Level FlightAware ADS-B
Fri 03:27:07 AM 51.0487 2.1487 113° Southeast 490 564 35,900  Descending FlightAware UK
Fri 03:27:09 AM 51.0570 2.1190 113° Southeast 444 511 36,000 364 Climbing FlightAware ADS-B
Fri 03:27:40 AM 51.0290 2.2130 115° Southeast 448 516 36,100 750 Climbing FlightAware ADS-B
Fri 03:28:13 AM 50.9902 2.3449 115° Southeast 490 564 36,800 1,333 Climbing FlightAware UK
Fri 03:28:16 AM 50.9960 2.3250 115° Southeast 447 514 36,900 154 Climbing FlightAware ADS-B
Fri 03:28:52 AM 50.9640 2.4320 115° Southeast 448 516 36,900  Level FlightAware ADS-B
Fri 03:29:27 AM 50.9330 2.5370 115° Southeast 447 514 36,900  Level FlightAware ADS-B
Fri 03:30:01 AM 50.8942 2.6677 115° Southeast 490 564 36,900 162 Level FlightAware UK
Fri 03:30:04 AM 50.9020 2.6430 115° Southeast 446 513 37,000 171 Climbing FlightAware ADS-B
Fri 03:30:36 AM 50.8720 2.7400 116° Southeast 446 513 37,000 -90 Level FlightAware ADS-B
Fri 03:31:11 AM 50.8410 2.8440 115° Southeast 445 512 36,900 -86 Descending FlightAware ADS-B
Fri 03:31:46 AM 50.8110 2.9430 116° Southeast 443 510 36,900  Level FlightAware ADS-B
Fri 03:32:19 AM 50.7709 3.0737 116° Southeast 488 562 36,900  Level FlightAware UK
Fri 03:32:20 AM 50.7810 3.0430 116° Southeast 440 506 36,900 154 Level FlightAware ADS-B
Fri 03:32:58 AM 50.7480 3.1510 116° Southeast 439 505 37,000 87 Climbing FlightAware ADS-B
Fri 03:33:29 AM 50.7200 3.2430 116° Southeast 440 506 37,000  Level FlightAware ADS-B
Fri 03:34:04 AM 50.6890 3.3430 116° Southeast 440 506 37,000 -158 Level FlightAware ADS-B
Fri 03:34:07 AM 50.6741 3.3873 116° Southeast 484 557 36,900  Descending FlightAware UK
Fri 03:34:42 AM 50.6560 3.4500 116° Southeast 442 509 37,000  Climbing FlightAware ADS-B
Fri 03:34:43 AM 50.6416 3.4915 116° Southeast 486 559 36,900 -167 Descending FlightAware UK
Fri 03:35:18 AM 50.6240 3.5530 116° Southeast 442 509 36,900 87 Level FlightAware ADS-B
Fri 03:35:52 AM 50.5940 3.6490 116° Southeast 444 511 37,000  Climbing FlightAware ADS-B
Fri 03:36:28 AM 50.5610 3.7550 116° Southeast 445 512 36,900  Descending FlightAware ADS-B
Fri 03:37:00 AM 50.5300 3.8530 116° Southeast 446 513 37,000  Climbing FlightAware ADS-B
Fri 03:37:36 AM 50.4980 3.9540 116° Southeast 447 514 36,900 -90 Descending FlightAware ADS-B
Fri 03:38:07 AM 50.4535 4.0855 116° Southeast 488 562 36,900 167 Level FlightAware UK
Fri 03:38:12 AM 50.4640 4.0610 116° Southeast 448 516 37,000  Climbing FlightAware ADS-B
Fri 03:38:43 AM 50.4190 4.1892 116° Southeast 490 564 36,900 -182 Descending FlightAware UK
Fri 03:38:45 AM 50.4340 4.1560 116° Southeast 450 518 36,900  Level FlightAware ADS-B
Fri 03:39:20 AM 50.3843 4.2939 116° Southeast 1 1 36,900 154 Level FlightAware UK
Fri 03:39:24 AM 50.3980 4.2690 116° Southeast 450 518 37,000  Climbing FlightAware ADS-B
Fri 03:39:55 AM 50.3680 4.3630 117° Southeast 450 518 36,900  Descending FlightAware ADS-B
Fri 03:40:32 AM 50.3340 4.4690 117° Southeast 452 520 37,000 82 Climbing FlightAware ADS-B
Fri 03:41:08 AM 50.2980 4.5780 117° Southeast 454 522 37,000 -88 Level FlightAware ADS-B
Fri 03:41:40 AM 50.2680 4.6710 117° Southeast 455 524 36,900  Descending FlightAware ADS-B
Fri 03:42:14 AM 50.2370 4.7680 117° Southeast 456 525 37,000 83 Climbing FlightAware ADS-B
Fri 03:42:52 AM 50.2000 4.8800 117° Southeast 457 526 37,000  Level FlightAware ADS-B
Fri 03:43:27 AM 50.1660 4.9840 117° Southeast 457 526 37,000  Level FlightAware ADS-B
Fri 03:43:59 AM 50.1350 5.0780 117° Southeast 456 525 37,000  Level FlightAware ADS-B
Fri 03:44:38 AM 50.0960 5.1930 118° Southeast 457 526 37,000 -83 Level FlightAware ADS-B
Fri 03:45:11 AM 50.0650 5.2860 117° Southeast 457 526 36,900  Descending FlightAware ADS-B
Fri 03:45:45 AM 50.0320 5.3850 117° Southeast 456 525 37,000 85 Climbing FlightAware ADS-B
Fri 03:46:22 AM 49.9950 5.4950 118° Southeast 455 524 37,000 -85 Level FlightAware ADS-B
Fri 03:46:56 AM 49.9620 5.5930 118° Southeast 455 524 36,900  Descending FlightAware ADS-B
Fri 03:47:31 AM 49.9290 5.6920 117° Southeast 455 524 37,000 76 Climbing FlightAware ADS-B
Fri 03:48:15 AM 49.8890 5.8100 118° Southeast 456 525 37,000  Level FlightAware ADS-B
Fri 03:48:47 AM 49.8540 5.9110 118° Southeast 456 525 37,000 -92 Level FlightAware ADS-B
Fri 03:49:20 AM 49.8230 6.0010 118° Southeast 456 525 36,900  Descending FlightAware ADS-B
Fri 03:49:57 AM 49.7840 6.1140 118° Southeast 456 525 37,000 82 Climbing FlightAware ADS-B
Fri 03:50:33 AM 49.7490 6.2160 118° Southeast 457 526 37,000  Level FlightAware ADS-B
Fri 03:51:07 AM 49.7140 6.3160 118° Southeast 458 527 37,000  Level FlightAware ADS-B
Fri 03:51:44 AM 49.6770 6.4220 118° Southeast 459 528 37,000 -90 Level FlightAware ADS-B
Fri 03:52:14 AM 49.6480 6.5060 118° Southeast 459 528 36,900 -83 Descending FlightAware ADS-B
Fri 03:52:56 AM 49.6050 6.6280 119° Southeast 460 529 36,900 81 Level FlightAware ADS-B
Fri 03:53:28 AM 49.5710 6.7220 119° Southeast 460 529 37,000 97 Climbing FlightAware ADS-B
Fri 03:53:58 AM 49.5430 6.8030 118° Southeast 460 529 37,000 -80 Level FlightAware ADS-B
Fri 03:54:43 AM 49.4960 6.9340 119° Southeast 461 531 36,900  Descending FlightAware ADS-B
Fri 03:55:21 AM 49.4570 7.0430 119° Southeast 461 531 37,000 81 Climbing FlightAware ADS-B
Fri 03:55:57 AM 49.4180 7.1510 119° Southeast 460 529 37,000  Level FlightAware ADS-B
Fri 03:56:30 AM 49.3860 7.2410 119° Southeast 461 531 37,000 -90 Level FlightAware ADS-B
Fri 03:57:04 AM 49.3490 7.3410 120° Southeast 461 531 36,900  Descending FlightAware ADS-B
Fri 03:57:41 AM 49.3120 7.4440 119° Southeast 462 532 37,000 83 Climbing FlightAware ADS-B
Fri 03:58:16 AM 49.2740 7.5460 120° Southeast 462 532 37,000  Level FlightAware ADS-B
Fri 03:58:53 AM 49.2350 7.6530 119° Southeast 464 534 37,000  Level FlightAware ADS-B
Fri 03:59:25 AM 49.2020 7.7420 120° Southeast 464 534 37,000  Level FlightAware ADS-B
Fri 04:00:00 AM 49.1640 7.8450 119° Southeast 465 535 37,000  Level FlightAware ADS-B
Fri 04:00:37 AM 49.1270 7.9440 120° Southeast 466 536 37,000  Level FlightAware ADS-B
Fri 04:01:09 AM 49.0910 8.0410 120° Southeast 467 537 37,000  Level FlightAware ADS-B
Fri 04:01:44 AM 49.0540 8.1400 120° Southeast 467 537 37,000  Level FlightAware ADS-B
Fri 04:02:21 AM 49.0130 8.2480 120° Southeast 468 539 37,000 -82 Level FlightAware ADS-B
Fri 04:02:57 AM 48.9740 8.3510 120° Southeast 469 540 36,900  Descending FlightAware ADS-B
Fri 04:03:32 AM 48.9370 8.4500 120° Southeast 469 540 37,000 88 Climbing FlightAware ADS-B
Fri 04:04:05 AM 48.9020 8.5420 120° Southeast 470 541 37,000  Level FlightAware ADS-B
Fri 04:04:41 AM 48.8620 8.6460 120° Southeast 470 541 37,000 -85 Level FlightAware ADS-B
Fri 04:05:16 AM 48.8250 8.7430 120° Southeast 470 541 36,900  Descending FlightAware ADS-B
Fri 04:05:51 AM 48.7840 8.8470 121° Southeast 470 541 37,000 90 Climbing FlightAware ADS-B
Fri 04:06:23 AM 48.7490 8.9390 120° Southeast 470 541 37,000  Level FlightAware ADS-B
Fri 04:06:56 AM 48.7070 9.0240 127° Southeast 464 534 37,000  Level FlightAware ADS-B
Fri 04:07:17 AM 48.6700 9.0610 147° Southeast 462 532 37,000 -111 Level FlightAware ADS-B
Fri 04:07:50 AM 48.6070 9.1070 154° Southeast 463 533 36,900  Descending FlightAware ADS-B
Fri 04:08:27 AM 48.5400 9.1760 146° Southeast 463 533 37,000 87 Climbing FlightAware ADS-B
Fri 04:08:59 AM 48.4840 9.2310 147° Southeast 464 534 37,000 -88 Level FlightAware ADS-B
Fri 04:09:35 AM 48.4190 9.2910 149° Southeast 465 535 36,900 -83 Descending FlightAware ADS-B
Fri 04:10:11 AM 48.3530 9.3520 148° Southeast 466 536 36,900  Level FlightAware ADS-B
Fri 04:10:43 AM 48.2930 9.4080 148° Southeast 467 537 36,900  Level FlightAware ADS-B
Fri 04:11:20 AM 48.2300 9.4800 143° Southeast 468 539 36,900  Level FlightAware ADS-B
Fri 04:11:54 AM 48.1770 9.5490 139° Southeast 469 540 36,900  Level FlightAware ADS-B
Fri 04:12:32 AM 48.1140 9.6300 139° Southeast 469 540 36,900 82 Level FlightAware ADS-B
Fri 04:13:07 AM 48.0560 9.7060 139° Southeast 469 540 37,000  Climbing FlightAware ADS-B
Fri 04:13:40 AM 48.0000 9.7770 140° Southeast 469 540 36,900  Descending FlightAware ADS-B
Fri 04:14:14 AM 47.9460 9.8470 139° Southeast 469 540 37,000  Climbing FlightAware ADS-B
Fri 04:14:50 AM 47.8870 9.9220 140° Southeast 469 540 36,900  Descending FlightAware ADS-B
Fri 04:15:25 AM 47.8280 9.9920 141° Southeast 470 541 37,000  Climbing FlightAware ADS-B
Fri 04:16:00 AM 47.7640 10.0540 147° Southeast 471 542 36,900 -86 Descending FlightAware ADS-B
Fri 04:16:35 AM 47.6980 10.1120 149° Southeast 471 542 36,900  Level FlightAware ADS-B
Fri 04:17:06 AM 47.6370 10.1660 149° Southeast 472 543 36,900  Level FlightAware ADS-B
Fri 04:17:55 AM 47.5470 10.2470 149° Southeast 472 543 36,900  Level FlightAware ADS-B
Fri 04:18:34 AM 47.4730 10.3160 148° Southeast 473 544 36,900 79 Level FlightAware ADS-B
Fri 04:19:11 AM 47.4090 10.3740 148° Southeast 473 544 37,000 514 Climbing FlightAware ADS-B
Fri 04:19:44 AM 47.3430 10.4360 148° Southeast 474 545 37,500 1,031 Climbing FlightAware ADS-B
Fri 04:20:15 AM 47.2850 10.4880 149° Southeast 473 544 38,100 1,043 Climbing FlightAware ADS-B
Fri 04:20:53 AM 47.2150 10.5520 148° Southeast 474 545 38,700 740 Climbing FlightAware ADS-B
Fri 04:21:28 AM 47.1530 10.6070 149° Southeast 475 547 39,000 169 Climbing FlightAware ADS-B
Fri 04:22:04 AM 47.0850 10.6680 149° Southeast 474 545 38,900  Descending FlightAware ADS-B
Fri 04:22:40 AM 47.0110 10.7250 152° Southeast 473 544 39,000 88 Climbing FlightAware ADS-B
Fri 04:23:12 AM 46.9510 10.7600 158° South 474 545 39,000 -90 Level FlightAware ADS-B
Fri 04:23:47 AM 46.8780 10.8020 159° South 473 544 38,900 -111 Descending FlightAware ADS-B
Fri 04:24:06 AM 46.8400 10.8280 155° Southeast 473 544 38,900  Level FlightAware ADS-B
Fri 04:24:37 AM 46.7880 10.8910 140° Southeast 473 544 38,900 97 Level FlightAware ADS-B
Fri 04:25:08 AM 46.7400 10.9540 138° Southeast 474 545 39,000  Climbing FlightAware ADS-B
Fri 04:25:48 AM 46.6720 11.0360 140° Southeast 474 545 38,900 -78 Descending FlightAware ADS-B
Fri 04:26:25 AM 46.6100 11.1160 138° Southeast 476 548 38,900 88 Level FlightAware ADS-B
Fri 04:26:56 AM 46.5580 11.1850 138° Southeast 477 549 39,000 97 Climbing FlightAware ADS-B
Fri 04:27:27 AM 46.5050 11.2560 137° Southeast 478 550 39,000 -82 Level FlightAware ADS-B
Fri 04:28:09 AM 46.4470 11.3420 134° Southeast 481 554 38,900  Descending FlightAware ADS-B
Fri 04:28:39 AM 46.4000 11.4240 130° Southeast 482 555 39,000 85 Climbing FlightAware ADS-B
Fri 04:29:20 AM 46.3390 11.5280 130° Southeast 484 557 39,000 -80 Level FlightAware ADS-B
Fri 04:29:54 AM 46.2910 11.6150 129° Southeast 484 557 38,900  Descending FlightAware ADS-B
Fri 04:30:37 AM 46.2390 11.7200 126° Southeast 484 557 39,000 78 Climbing FlightAware ADS-B
Fri 04:31:11 AM 46.1940 11.8130 125° Southeast 485 558 39,000 -88 Level FlightAware ADS-B
Fri 04:31:45 AM 46.1470 11.9050 126° Southeast 486 559 38,900  Descending FlightAware ADS-B
Fri 04:32:19 AM 46.1050 11.9880 126° Southeast 486 559 39,000 85 Climbing FlightAware ADS-B
Fri 04:32:56 AM 46.0520 12.0910 127° Southeast 487 560 39,000 -86 Level FlightAware ADS-B
Fri 04:33:29 AM 46.0080 12.1770 126° Southeast 485 558 38,900 -92 Descending FlightAware ADS-B
Fri 04:34:01 AM 45.9650 12.2610 126° Southeast 485 558 38,900 86 Level FlightAware ADS-B
Fri 04:34:39 AM 45.9160 12.3550 127° Southeast 484 557 39,000 82 Climbing FlightAware ADS-B
Fri 04:35:14 AM 45.8680 12.4480 127° Southeast 484 557 39,000  Level FlightAware ADS-B
Fri 04:35:49 AM 45.8240 12.5340 126° Southeast 484 557 39,000  Level FlightAware ADS-B
Fri 04:36:24 AM 45.7740 12.6300 127° Southeast 485 558 39,000  Level FlightAware ADS-B
Fri 04:36:59 AM 45.7280 12.7180 127° Southeast 486 559 39,000 -86 Level FlightAware ADS-B
Fri 04:37:34 AM 45.6810 12.8080 127° Southeast 488 562 38,900  Descending FlightAware ADS-B
Fri 04:38:11 AM 45.6330 12.8980 127° Southeast 489 563 39,000  Climbing FlightAware ADS-B
Fri 04:38:44 AM 45.5850 12.9910 126° Southeast 485 558 38,900 -88 Descending FlightAware ADS-B
Fri 04:39:19 AM 45.5370 13.0810 127° Southeast 490 564 38,900 86 Level FlightAware ADS-B
Fri 04:39:54 AM 45.4900 13.1710 127° Southeast 490 564 39,000 85 Climbing FlightAware ADS-B
Fri 04:40:30 AM 45.4420 13.2620 127° Southeast 486 559 39,000 -86 Level FlightAware ADS-B
Fri 04:41:04 AM 45.3950 13.3500 127° Southeast 486 559 38,900 -80 Descending FlightAware ADS-B
Fri 04:41:45 AM 45.3390 13.4560 127° Southeast 485 558 38,900 80 Level FlightAware ADS-B
Fri 04:42:19 AM 45.2960 13.5380 127° Southeast 486 559 39,000 87 Climbing FlightAware ADS-B
Fri 04:42:54 AM 45.2470 13.6290 127° Southeast 486 559 39,000 -80 Level FlightAware ADS-B
Fri 04:43:34 AM 45.1890 13.7380 127° Southeast 487 560 38,900  Descending FlightAware ADS-B
Fri 04:44:05 AM 45.1480 13.8150 127° Southeast 487 560 39,000 92 Climbing FlightAware ADS-B
Fri 04:44:39 AM 45.1000 13.9040 127° Southeast 487 560 39,000  Level FlightAware ADS-B
Fri 04:45:19 AM 45.0450 14.0040 128° Southeast 487 560 39,000 -85 Level FlightAware ADS-B
Fri 04:45:50 AM 45.0040 14.0820 127° Southeast 488 562 38,900  Descending FlightAware ADS-B
Fri 04:46:24 AM 44.9570 14.1680 128° Southeast 488 562 39,000 85 Climbing FlightAware ADS-B
Fri 04:47:01 AM 44.9060 14.2620 127° Southeast 489 563 39,000  Level FlightAware ADS-B
Fri 04:47:42 AM 44.8510 14.3610 128° Southeast 495 570 39,000 -74 Level FlightAware ADS-B
Fri 04:48:22 AM 44.7950 14.4640 127° Southeast 495 570 38,900  Descending FlightAware ADS-B
Fri 04:48:57 AM 44.7440 14.5560 128° Southeast 495 570 39,000  Climbing FlightAware ADS-B
Fri 04:49:32 AM 44.6970 14.6420 128° Southeast 495 570 38,900  Descending FlightAware ADS-B
Fri 04:50:04 AM 44.6480 14.7310 128° Southeast 494 568 39,000 82 Climbing FlightAware ADS-B
Fri 04:50:45 AM 44.5920 14.8320 128° Southeast 495 570 39,000 -79 Level FlightAware ADS-B
Fri 04:51:20 AM 44.5430 14.9200 128° Southeast 494 568 38,900 -83 Descending FlightAware ADS-B
Fri 04:51:57 AM 44.4990 15.0010 127° Southeast 494 568 38,900  Level FlightAware ADS-B
Fri 04:52:30 AM 44.4490 15.0870 129° Southeast 492 566 38,900 87 Level FlightAware ADS-B
Fri 04:53:06 AM 44.3930 15.1870 128° Southeast 491 565 39,000  Climbing FlightAware ADS-B
Fri 04:54:01 AM 44.3150 15.3260 128° Southeast 489 563 38,900 -67 Descending FlightAware ADS-B
Fri 04:54:36 AM 44.2660 15.4110 129° Southeast 482 555 38,900 92 Level FlightAware ADS-B
Fri 04:55:06 AM 44.2250 15.4850 128° Southeast 487 560 39,000  Climbing FlightAware ADS-B
Fri 04:55:41 AM 44.1760 15.5710 128° Southeast 487 560 38,900  Descending FlightAware ADS-B
Fri 04:56:17 AM 44.1240 15.6620 129° Southeast 488 562 39,000  Climbing FlightAware ADS-B
Fri 04:56:49 AM 44.0790 15.7400 129° Southeast 490 564 38,900  Descending FlightAware ADS-B
Fri 04:57:25 AM 44.0290 15.8280 128° Southeast 491 565 39,000  Climbing FlightAware ADS-B
Fri 04:57:59 AM 43.9810 15.9110 129° Southeast 492 566 38,900 -83 Descending FlightAware ADS-B
Fri 04:58:37 AM 43.9250 16.0070 129° Southeast 493 567 38,900  Level FlightAware ADS-B
Fri 04:59:07 AM 43.8830 16.0810 128° Southeast 494 568 38,900 88 Level FlightAware ADS-B
Fri 04:59:45 AM 43.8280 16.1750 129° Southeast 495 570 39,000  Climbing FlightAware ADS-B
Fri 05:00:23 AM 43.7740 16.2680 129° Southeast 496 571 38,900 -86 Descending FlightAware ADS-B
Fri 05:00:55 AM 43.7270 16.3480 129° Southeast 496 571 38,900  Level FlightAware ADS-B
Fri 05:01:31 AM 43.6750 16.4370 129° Southeast 496 571 38,900  Level FlightAware ADS-B
Fri 05:02:07 AM 43.6240 16.5240 129° Southeast 496 571 38,900 91 Level FlightAware ADS-B
Fri 05:02:37 AM 43.5810 16.5960 129° Southeast 496 571 39,000 91 Climbing FlightAware ADS-B
Fri 05:03:13 AM 43.5290 16.6840 129° Southeast 495 570 39,000  Level FlightAware ADS-B
Fri 05:04:04 AM 43.4610 16.7990 129° Southeast 489 563 39,000  Level FlightAware ADS-B
Fri 05:04:39 AM 43.4030 16.8970 129° Southeast 494 568 39,000  Level FlightAware ADS-B
Fri 05:05:15 AM 43.3510 16.9840 129° Southeast 495 570 39,000 -86 Level FlightAware ADS-B
Fri 05:05:49 AM 43.3020 17.0650 130° Southeast 496 571 38,900  Descending FlightAware ADS-B
Fri 05:06:25 AM 43.2490 17.1550 129° Southeast 496 571 39,000 83 Climbing FlightAware ADS-B
Fri 05:07:01 AM 43.1960 17.2420 130° Southeast 497 572 39,000 -88 Level FlightAware ADS-B
Fri 05:07:33 AM 43.1500 17.3180 130° Southeast 497 572 38,900 -88 Descending FlightAware ADS-B
Fri 05:08:09 AM 43.0960 17.4080 129° Southeast 499 574 38,900 88 Level FlightAware ADS-B
Fri 05:08:41 AM 43.0510 17.4830 129° Southeast 499 574 39,000  Climbing FlightAware ADS-B
Fri 05:09:21 AM 42.9900 17.5820 130° Southeast 501 577 38,900 -81 Descending FlightAware ADS-B
Fri 05:09:55 AM 42.9390 17.6650 130° Southeast 501 577 38,900  Level FlightAware ADS-B
Fri 05:10:31 AM 42.8860 17.7520 130° Southeast 500 575 38,900 83 Level FlightAware ADS-B
Fri 05:11:07 AM 42.8330 17.8390 130° Southeast 501 577 39,000  Climbing FlightAware ADS-B
Fri 05:11:37 AM 42.7880 17.9110 130° Southeast 501 577 38,900  Descending FlightAware ADS-B
Fri 05:12:32 AM 42.7070 18.0430 130° Southeast 501 577 39,000 77 Climbing FlightAware ADS-B
Fri 05:12:55 AM 42.6730 18.0980 130° Southeast 501 577 39,000  Level FlightAware ADS-B
Fri 05:13:32 AM 42.6170 18.1870 131° Southeast 501 577 39,000  Level FlightAware ADS-B
Fri 05:14:10 AM 42.5560 18.2790 132° Southeast 501 577 39,000  Level FlightAware ADS-B
Fri 05:14:45 AM 42.5000 18.3550 135° Southeast 502 578 39,000  Level FlightAware ADS-B
Fri 05:15:19 AM 42.4460 18.4290 135° Southeast 501 577 39,000 -87 Level FlightAware ADS-B
Fri 05:15:54 AM 42.3850 18.5100 136° Southeast 502 578 38,900  Descending FlightAware ADS-B
Fri 05:16:30 AM 42.3270 18.5890 135° Southeast 502 578 39,000 82 Climbing FlightAware ADS-B
Fri 05:17:07 AM 42.2670 18.6650 137° Southeast 503 579 39,000  Level FlightAware ADS-B
Fri 05:17:36 AM 42.2160 18.7300 137° Southeast 504 580 39,000 -80 Level FlightAware ADS-B
Fri 05:18:22 AM 42.1360 18.8300 137° Southeast 505 581 38,900  Descending FlightAware ADS-B
Fri 05:18:54 AM 42.0830 18.8960 137° Southeast 505 581 39,000  Climbing FlightAware ADS-B
Fri 05:19:32 AM 42.0170 18.9790 137° Southeast 507 583 38,900 -86 Descending FlightAware ADS-B
Fri 05:20:04 AM 41.9640 19.0460 137° Southeast 507 583 38,900 83 Level FlightAware ADS-B
Fri 05:20:44 AM 41.8930 19.1350 137° Southeast 508 585 39,000  Climbing FlightAware ADS-B
Fri 05:21:16 AM 41.8380 19.2040 137° Southeast 508 585 38,900  Descending FlightAware ADS-B
Fri 05:21:52 AM 41.7750 19.2820 137° Southeast 509 586 39,000  Climbing FlightAware ADS-B
Fri 05:22:25 AM 41.7210 19.3490 137° Southeast 509 586 38,900 -88 Descending FlightAware ADS-B
Fri 05:23:00 AM 41.6590 19.4250 138° Southeast 509 586 38,900  Level FlightAware ADS-B
Fri 05:23:36 AM 41.5960 19.5030 137° Southeast 508 585 38,900 83 Level FlightAware ADS-B
Fri 05:24:12 AM 41.5340 19.5790 137° Southeast 506 582 39,000  Climbing FlightAware ADS-B
Fri 05:24:46 AM 41.4760 19.6500 137° Southeast 505 581 38,900  Descending FlightAware ADS-B
Fri 05:25:33 AM 41.4040 19.7400 137° Southeast 504 580 39,000  Climbing FlightAware ADS-B
Fri 05:26:13 AM 41.3310 19.8410 134° Southeast 505 581 38,900 -83 Descending FlightAware ADS-B
Fri 05:26:45 AM 41.2810 19.9090 134° Southeast 506 582 38,900  Level FlightAware ADS-B
Fri 05:27:20 AM 41.2210 19.9900 135° Southeast 508 585 38,900 83 Level FlightAware ADS-B
Fri 05:27:57 AM 41.1610 20.0710 135° Southeast 509 586 39,000  Climbing FlightAware ADS-B
Fri 05:28:29 AM 41.1070 20.1430 135° Southeast 510 587 38,900  Descending FlightAware ADS-B
Fri 05:28:59 AM 41.0570 20.2080 136° Southeast 511 588 39,000 83 Climbing FlightAware ADS-B
Fri 05:29:41 AM 40.9870 20.3010 135° Southeast 514 592 39,000 -77 Level FlightAware ADS-B
Fri 05:30:17 AM 40.9250 20.3830 135° Southeast 515 593 38,900  Descending FlightAware ADS-B
Fri 05:30:53 AM 40.8640 20.4640 135° Southeast 516 594 39,000 91 Climbing FlightAware ADS-B
Fri 05:31:23 AM 40.8140 20.5290 135° Southeast 519 597 39,000  Level FlightAware ADS-B
Fri 05:32:00 AM 40.7520 20.6100 135° Southeast 519 597 39,000  Level FlightAware ADS-B
Fri 05:32:35 AM 40.6930 20.6870 135° Southeast 521 600 39,000  Level FlightAware ADS-B
Fri 05:33:10 AM 40.6350 20.7620 136° Southeast 521 600 39,000  Level FlightAware ADS-B
Fri 05:33:45 AM 40.5720 20.8440 135° Southeast 521 600 39,000  Level FlightAware ADS-B
Fri 05:34:21 AM 40.5080 20.9250 136° Southeast 520 598 39,000  Level FlightAware ADS-B
Fri 05:34:57 AM 40.4440 21.0010 138° Southeast 520 598 39,000  Level FlightAware ADS-B
Fri 05:35:29 AM 40.3860 21.0670 139° Southeast 521 600 39,000 -88 Level FlightAware ADS-B
Fri 05:36:05 AM 40.3190 21.1440 139° Southeast 523 602 38,900  Descending FlightAware ADS-B
Fri 05:36:41 AM 40.2540 21.2170 139° Southeast 523 602 39,000 86 Climbing FlightAware ADS-B
Fri 05:37:15 AM 40.1940 21.2870 138° Southeast 525 604 39,000 -85 Level FlightAware ADS-B
Fri 05:37:52 AM 40.1300 21.3640 137° Southeast 526 605 38,900 -86 Descending FlightAware ADS-B
Fri 05:38:25 AM 40.0670 21.4400 137° Southeast 526 605 38,900  Level FlightAware ADS-B
Fri 05:39:01 AM 40.0020 21.5180 137° Southeast 525 604 38,900 83 Level FlightAware ADS-B
Fri 05:39:37 AM 39.9390 21.5930 138° Southeast 526 605 39,000  Climbing FlightAware ADS-B
Fri 05:40:16 AM 39.8670 21.6780 138° Southeast 525 604 38,900 -78 Descending FlightAware ADS-B
Fri 05:40:54 AM 39.8020 21.7540 138° Southeast 524 603 38,900 82 Level FlightAware ADS-B
Fri 05:41:29 AM 39.7390 21.8290 138° Southeast 524 603 39,000 86 Climbing FlightAware ADS-B
Fri 05:42:04 AM 39.6840 21.8920 139° Southeast 524 603 39,000  Level FlightAware ADS-B
Fri 05:42:37 AM 39.6150 21.9730 138° Southeast 524 603 39,000 -92 Level FlightAware ADS-B
Fri 05:43:09 AM 39.5590 22.0390 138° Southeast 523 602 38,900  Descending FlightAware ADS-B
Fri 05:43:46 AM 39.4900 22.1190 138° Southeast 523 602 39,000  Climbing FlightAware ADS-B
Fri 05:44:25 AM 39.4210 22.1990 138° Southeast 522 601 38,900  Descending FlightAware ADS-B
Fri 05:44:58 AM 39.3610 22.2690 138° Southeast 521 600 39,000  Climbing FlightAware ADS-B
Fri 05:45:34 AM 39.2980 22.3420 138° Southeast 520 598 38,900  Descending FlightAware ADS-B
Fri 05:46:07 AM 39.2400 22.4080 139° Southeast 518 596 39,000 86 Climbing FlightAware ADS-B
Fri 05:46:44 AM 39.1740 22.4840 138° Southeast 517 595 39,000 -85 Level FlightAware ADS-B
Fri 05:47:18 AM 39.1090 22.5600 138° Southeast 514 592 38,900 -87 Descending FlightAware ADS-B
Fri 05:47:53 AM 39.0460 22.6310 139° Southeast 513 590 38,900 86 Level FlightAware ADS-B
Fri 05:48:28 AM 38.9850 22.7010 138° Southeast 512 589 39,000 83 Climbing FlightAware ADS-B
Fri 05:49:05 AM 38.9200 22.7750 138° Southeast 511 588 39,000 -82 Level FlightAware ADS-B
Fri 05:49:41 AM 38.8540 22.8490 139° Southeast 510 587 38,900  Descending FlightAware ADS-B
Fri 05:50:12 AM 38.8010 22.9100 138° Southeast 509 586 39,000  Climbing FlightAware ADS-B
Fri 05:50:49 AM 38.7370 22.9820 139° Southeast 507 583 38,900 -82 Descending FlightAware ADS-B
Fri 05:51:25 AM 38.6720 23.0560 138° Southeast 506 582 38,900 85 Level FlightAware ADS-B
Fri 05:52:00 AM 38.6130 23.1230 138° Southeast 506 582 39,000  Climbing FlightAware ADS-B
Fri 05:52:34 AM 38.5510 23.1920 139° Southeast 506 582 38,900 -85 Descending FlightAware ADS-B
Fri 05:53:11 AM 38.4860 23.2640 139° Southeast 505 581 38,900 85 Level FlightAware ADS-B
Fri 05:53:45 AM 38.4270 23.3310 138° Southeast 506 582 39,000  Climbing FlightAware ADS-B
Fri 05:54:19 AM 38.3710 23.3940 139° Southeast 505 581 38,900 -87 Descending FlightAware ADS-B
Fri 05:54:54 AM 38.3060 23.4660 139° Southeast 506 582 38,900  Level FlightAware ADS-B
Fri 05:55:31 AM 38.2410 23.5380 139° Southeast 506 582 38,900  Level FlightAware ADS-B
Fri 05:56:07 AM 38.1760 23.6100 139° Southeast 505 581 38,900  Level FlightAware ADS-B
Fri 05:56:37 AM 38.1220 23.6690 139° Southeast 504 580 38,900  Level FlightAware ADS-B
Fri 05:57:14 AM 38.0580 23.7410 138° Southeast 504 580 38,900  Level FlightAware ADS-B
Fri 05:57:50 AM 37.9990 23.8170 135° Southeast 511 588 38,900 86 Level FlightAware ADS-B
Fri 05:58:24 AM 37.9520 23.8990 126° Southeast 516 594 39,000 85 Climbing FlightAware ADS-B
Fri 05:59:01 AM 37.9050 23.9960 122° Southeast 518 596 39,000  Level FlightAware ADS-B
Fri 05:59:36 AM 37.8620 24.0830 122° Southeast 519 597 39,000 -91 Level FlightAware ADS-B
Fri 06:00:07 AM 37.8210 24.1640 123° Southeast 519 597 38,900  Descending FlightAware ADS-B
Fri 06:00:44 AM 37.7720 24.2580 123° Southeast 520 598 39,000 83 Climbing FlightAware ADS-B
Fri 06:01:19 AM 37.7250 24.3490 123° Southeast 521 600 39,000  Level FlightAware ADS-B
Fri 06:01:56 AM 37.6770 24.4420 123° Southeast 522 601 39,000 -86 Level FlightAware ADS-B
Fri 06:02:29 AM 37.6340 24.5250 123° Southeast 523 602 38,900 -86 Descending FlightAware ADS-B
Fri 06:03:06 AM 37.5850 24.6210 123° Southeast 524 603 38,900 87 Level FlightAware ADS-B
Fri 06:03:38 AM 37.5420 24.7040 123° Southeast 525 604 39,000  Climbing FlightAware ADS-B
Fri 06:04:15 AM 37.4930 24.7980 123° Southeast 527 606 38,900 -83 Descending FlightAware ADS-B
Fri 06:04:50 AM 37.4470 24.8870 123° Southeast 527 606 38,900 83 Level FlightAware ADS-B
Fri 06:05:27 AM 37.3980 24.9830 123° Southeast 529 609 39,000 87 Climbing FlightAware ADS-B
Fri 06:05:59 AM 37.3550 25.0640 124° Southeast 532 612 39,000  Level FlightAware ADS-B
Fri 06:06:34 AM 37.3080 25.1550 123° Southeast 534 615 39,000  Level FlightAware ADS-B
Fri 06:07:08 AM 37.2610 25.2440 124° Southeast 536 617 39,000 -87 Level FlightAware ADS-B
Fri 06:07:43 AM 37.2140 25.3330 124° Southeast 537 618 38,900  Descending FlightAware ADS-B
Fri 06:08:20 AM 37.1620 25.4330 123° Southeast 538 619 39,000  Climbing FlightAware ADS-B
Fri 06:08:55 AM 37.1150 25.5220 123° Southeast 538 619 38,900  Descending FlightAware ADS-B
Fri 06:09:31 AM 37.0650 25.6170 123° Southeast 538 619 39,000 88 Climbing FlightAware ADS-B
Fri 06:10:03 AM 37.0220 25.6980 124° Southeast 538 619 39,000  Level FlightAware ADS-B
Fri 06:10:39 AM 36.9720 25.7920 124° Southeast 538 619 39,000  Level FlightAware ADS-B
Fri 06:11:03 AM 36.9390 25.8550 123° Southeast 539 620 39,000  Level FlightAware ADS-B
Fri 06:11:53 AM 36.8700 25.9850 124° Southeast 541 623 39,000 -70 Level FlightAware ADS-B
Fri 06:12:29 AM 36.8190 26.0800 124° Southeast 542 624 38,900 -88 Descending FlightAware ADS-B
Fri 06:13:01 AM 36.7740 26.1630 124° Southeast 543 625 38,900  Level FlightAware ADS-B
Fri 06:13:37 AM 36.7250 26.2560 123° Southeast 543 625 38,900 83 Level FlightAware ADS-B
Fri 06:14:13 AM 36.6740 26.3500 124° Southeast 544 626 39,000 83 Climbing FlightAware ADS-B
Fri 06:14:49 AM 36.6240 26.4430 124° Southeast 545 627 39,000  Level FlightAware ADS-B
Fri 06:15:21 AM 36.5790 26.5270 124° Southeast 547 629 39,000 -88 Level FlightAware ADS-B
Fri 06:15:57 AM 36.5280 26.6200 124° Southeast 547 629 38,900  Descending FlightAware ADS-B
Fri 06:16:33 AM 36.4770 26.7140 124° Southeast 547 629 39,000 83 Climbing FlightAware ADS-B
Fri 06:17:09 AM 36.4250 26.8090 124° Southeast 549 632 39,000  Level FlightAware ADS-B
Fri 06:17:41 AM 36.3800 26.8920 124° Southeast 550 633 39,000 -91 Level FlightAware ADS-B
Fri 06:18:15 AM 36.3330 26.9790 124° Southeast 550 633 38,900 -80 Descending FlightAware ADS-B
Fri 06:18:56 AM 36.2830 27.0700 124° Southeast 550 633 38,900  Level FlightAware ADS-B
Fri 06:19:32 AM 36.2390 27.1500 124° Southeast 550 633 38,900  Level FlightAware ADS-B
Fri 06:20:08 AM 36.1960 27.2300 124° Southeast 550 633 38,900  Level FlightAware ADS-B
Fri 06:20:44 AM 36.1520 27.3100 124° Southeast 550 633 38,900  Level FlightAware ADS-B
Fri 06:21:20 AM 36.1090 27.3900 124° Southeast 550 633 38,900  Level FlightAware ADS-B
Fri 06:21:56 AM 36.0650 27.4700 124° Southeast 550 633 38,900  Level FlightAware ADS-B
Fri 06:22:32 AM 36.0220 27.5490 124° Southeast 550 633 38,900  Level FlightAware ADS-B
Fri 06:23:08 AM 35.9780 27.6290 124° Southeast 550 633 38,900  Level FlightAware ADS-B
Fri 06:23:44 AM 35.9350 27.7090 124° Southeast 550 633 38,900  Level FlightAware ADS-B
Fri 06:24:20 AM 35.8910 27.7890 124° Southeast 550 633 38,900  Level FlightAware ADS-B
Fri 06:24:58 AM 35.8450 27.8730 124° Southeast 550 633 38,900  Level FlightAware ADS-B
Fri 06:25:34 AM 35.8020 27.9520 124° Southeast 550 633 38,900 86 Level FlightAware ADS-B
Fri 06:26:08 AM 35.6570 28.1890 127° Southeast 536 617 39,000  Climbing FlightAware ADS-B
Fri 06:26:44 AM 35.6070 28.2790 124° Southeast 535 616 38,900  Descending FlightAware ADS-B
Fri 06:27:16 AM 35.5600 28.3600 125° Southeast 535 616 39,000  Climbing FlightAware ADS-B
Fri 06:27:52 AM 35.5090 28.4490 125° Southeast 535 616 38,900  Descending FlightAware ADS-B
Fri 06:28:29 AM 35.4580 28.5390 125° Southeast 536 617 39,000 83 Climbing FlightAware ADS-B
Fri 06:29:04 AM 35.4080 28.6260 125° Southeast 537 618 39,000  Level FlightAware ADS-B
Fri 06:29:36 AM 35.3610 28.7080 125° Southeast 537 618 39,000  Level FlightAware ADS-B
Fri 06:30:14 AM 35.3060 28.8040 125° Southeast 537 618 39,000  Level FlightAware ADS-B
Fri 06:31:08 AM 35.2300 28.9350 125° Southeast 554 638 39,000  Level FlightAware ADS-B
Fri 06:31:44 AM 35.1840 29.0140 125° Southeast 532 612 39,000  Level FlightAware ADS-B
Fri 06:32:23 AM 35.1260 29.1120 126° Southeast 627 722 39,000  Level FlightAware ADS-B
Fri 06:33:09 AM 35.0680 29.2160 124° Southeast 532 612 39,000  Level FlightAware ADS-B
Fri 06:33:38 AM 35.0190 29.2950 127° Southeast 575 662 39,000  Level FlightAware ADS-B
Fri 06:34:44 AM 34.9190 29.4660 125° Southeast 38,900  Descending FlightAware ADS-B
Fri 06:35:19 AM 34.8680 29.5520 126° Southeast 528 608 39,000 85 Climbing FlightAware ADS-B
Fri 06:35:55 AM 34.8170 29.6390 126° Southeast 527 606 39,000 -91 Level FlightAware ADS-B
Fri 06:36:25 AM 34.7750 29.7100 126° Southeast 526 605 38,900  Descending FlightAware ADS-B
Fri 06:37:05 AM 34.7170 29.8060 126° Southeast 525 604 39,000  Climbing FlightAware ADS-B
Fri 06:38:01 AM 34.6440 29.9300 126° Southeast 525 604 38,900 -65 Descending FlightAware ADS-B
Fri 06:38:37 AM 34.6020 30.0040 125° Southeast 525 604 38,900  Level FlightAware ADS-B
Fri 06:39:13 AM 34.5590 30.0780 125° Southeast 525 604 38,900 82 Level FlightAware ADS-B
Fri 06:39:50 AM 34.5020 30.2120 117° Southeast 529 609 39,000 82 Climbing FlightAware ADS-B
Fri 06:40:26 AM 34.4580 30.3070 119° Southeast 527 606 39,000  Level FlightAware ADS-B
Fri 06:41:02 AM 34.4190 30.3880 120° Southeast 522 601 39,000 -85 Level FlightAware ADS-B
Fri 06:41:37 AM 34.3720 30.4870 120° Southeast 521 600 38,900  Descending FlightAware ADS-B
Fri 06:42:18 AM 34.3220 30.5900 120° Southeast 520 598 39,000 77 Climbing FlightAware ADS-B
Fri 06:42:55 AM 34.2800 30.6780 120° Southeast 519 597 39,000  Level FlightAware ADS-B
Fri 06:43:35 AM 34.2260 30.7880 121° Southeast 520 598 39,000  Level FlightAware ADS-B
Fri 06:44:11 AM 34.1830 30.8770 120° Southeast 520 598 39,000  Level FlightAware ADS-B
Fri 06:44:50 AM 34.1350 30.9750 121° Southeast 520 598 39,000  Level FlightAware ADS-B
Fri 06:45:20 AM 34.0980 31.0510 120° Southeast 521 600 39,000 -92 Level FlightAware ADS-B
Fri 06:45:55 AM 34.0540 31.1420 120° Southeast 520 598 38,900 -85 Descending FlightAware ADS-B
Fri 06:46:31 AM 34.0100 31.2310 121° Southeast 520 598 38,900 85 Level FlightAware ADS-B
Fri 06:47:06 AM 33.9670 31.3190 120° Southeast 520 598 39,000  Climbing FlightAware ADS-B
Fri 06:47:41 AM 33.9230 31.4070 121° Southeast 520 598 38,900  Descending FlightAware ADS-B
Fri 06:48:16 AM 33.8790 31.4960 121° Southeast 520 598 39,000 85 Climbing FlightAware ADS-B
Fri 06:48:52 AM 33.8350 31.5850 121° Southeast 521 600 39,000  Level FlightAware ADS-B
Fri 06:49:26 AM 33.7930 31.6700 121° Southeast 521 600 39,000  Level FlightAware ADS-B
Fri 06:50:07 AM 33.7420 31.7720 121° Southeast 521 600 39,000  Level FlightAware ADS-B
Fri 06:50:41 AM 33.7000 31.8560 121° Southeast 521 600 39,000  Level FlightAware ADS-B
Fri 06:51:17 AM 33.6540 31.9480 121° Southeast 526 605 39,000  Level FlightAware ADS-B
Fri 06:51:52 AM 33.6150 32.0240 122° Southeast 525 604 39,000  Level FlightAware ADS-B
Fri 06:52:28 AM 33.5660 32.1210 121° Southeast 525 604 39,000  Level FlightAware ADS-B
Fri 06:53:02 AM 33.5210 32.2100 121° Southeast 527 606 39,000 -86 Level FlightAware ADS-B
Fri 06:53:38 AM 33.4750 32.3010 121° Southeast 525 604 38,900 -525 Descending FlightAware ADS-B
Fri 06:54:22 AM 33.4240 32.4020 121° Southeast 523 602 38,300 -1,111 Descending FlightAware ADS-B
Fri 06:54:59 AM 33.3780 32.4920 121° Southeast 525 604 37,400 -1,701 Descending FlightAware ADS-B
Fri 06:55:29 AM 33.3400 32.5660 122° Southeast 520 598 36,400 -2,060 Descending FlightAware ADS-B
Fri 06:56:06 AM 33.2930 32.6570 122° Southeast 513 590 35,100 -1,216 Descending FlightAware ADS-B
Fri 06:56:43 AM 33.2440 32.7530 121° Southeast 512 589 34,900 -176 Descending FlightAware ADS-B
Fri 06:57:14 AM 33.2090 32.8210 122° Southeast 512 589 34,900 86 Level FlightAware ADS-B
Fri 06:57:53 AM 33.1580 32.9180 122° Southeast 514 592 35,000  Climbing FlightAware ADS-B
Fri 06:58:26 AM 33.1160 33.0000 121° Southeast 514 592 34,900 -696 Descending FlightAware ADS-B
Fri 06:59:02 AM 33.0710 33.0860 122° Southeast 582 670 34,200 -2,328 Descending FlightAware ADS-B
Fri 06:59:33 AM 33.0340 33.1580 121° Southeast 518 596 32,300 -2,354 Descending FlightAware ADS-B
Fri 07:00:21 AM 32.9820 33.2580 122° Southeast 523 602 31,100 -3,190 Descending FlightAware ADS-B
Fri 07:00:52 AM 32.9320 33.3540 122° Southeast 508 585 28,100 -4,235 Descending FlightAware ADS-B
Fri 07:01:29 AM 32.8840 33.4450 122° Southeast 493 567 26,300 -2,795 Descending FlightAware ADS-B
Fri 07:02:05 AM 32.8410 33.5260 122° Southeast 480 552 24,700 -2,647 Descending FlightAware ADS-B
Fri 07:02:37 AM 32.8050 33.5940 122° Southeast 464 534 23,300 -2,657 Descending FlightAware ADS-B
Fri 07:03:15 AM 32.7620 33.6740 123° Southeast 448 516 21,600 -2,750 Descending FlightAware ADS-B
Fri 07:03:49 AM 32.7240 33.7460 122° Southeast 440 506 20,000 -2,735 Descending FlightAware ADS-B
Fri 07:04:23 AM 32.6870 33.8140 123° Southeast 429 494 18,500 -2,657 Descending FlightAware ADS-B
Fri 07:04:59 AM 32.6490 33.8850 122° Southeast 420 483 16,900 -2,667 Descending FlightAware ADS-B
Fri 07:05:35 AM 32.6120 33.9560 122° Southeast 412 474 15,300 -2,559 Descending FlightAware ADS-B
Fri 07:06:07 AM 32.5800 34.0150 123° Southeast 405 466 14,000 -2,382 Descending FlightAware ADS-B
Fri 07:06:43 AM 32.5440 34.0820 123° Southeast 393 452 12,600 -2,333 Descending FlightAware ADS-B
Fri 07:07:19 AM 32.5070 34.1440 125° Southeast 382 440 11,200 -1,483 Descending FlightAware ADS-B
Fri 07:08:12 AM 32.4490 34.2140 134° Southeast 369 425 10,400 -539 Descending FlightAware ADS-B
Fri 07:08:48 AM 32.4120 34.2580 135° Southeast 369 425 10,400  Level FlightAware ADS-B
Fri 07:09:24 AM 32.3750 34.3020 135° Southeast 369 425 10,400 -1,846 Level FlightAware ADS-B
Fri 07:09:53 AM 32.3440 34.3360 137° Southeast 286 329 8,400 -2,066 Descending FlightAware ADS-B
Fri 07:10:25 AM 32.3170 34.3670 136° Southeast 285 328 8,300 -107 Descending FlightAware ADS-B
Fri 07:10:49 AM 32.2980 34.3900 134° Southeast 285 328 8,300  Level FlightAware ADS-B
Fri 07:11:25 AM 32.2690 34.4230 136° Southeast 285 328 8,300  Level FlightAware ADS-B
Fri 07:11:49 AM 32.2500 34.4460 134° Southeast 285 328 8,300 -1,946 Level FlightAware ADS-B
Fri 07:12:39 AM 32.2120 34.5220 121° Southeast 256 295 5,900 -2,240 Descending FlightAware ADS-B
Fri 07:13:04 AM 32.1990 34.5470 122° Southeast 254 292 5,500 -977 Descending FlightAware ADS-B
Fri 07:13:22 AM 32.1870 34.5700 122° Southeast 259 298 5,200 -800 Descending FlightAware ADS-B
Fri 07:13:34 AM 32.1770 34.5880 123° Southeast 264 304 5,100 -167 Descending FlightAware ADS-B
Fri 07:13:58 AM 32.1610 34.6170 123° Southeast 264 304 5,100  Level FlightAware ADS-B
Fri 07:14:16 AM 32.1520 34.6330 124° Southeast 261 300 5,100  Level FlightAware ADS-B
Fri 07:14:40 AM 32.1340 34.6640 124° Southeast 240 276 5,100  Level FlightAware ADS-B
Fri 07:14:58 AM 32.1210 34.6870 124° Southeast 235 270 5,100  Level FlightAware ADS-B
Fri 07:15:20 AM 32.1100 34.7060 124° Southeast 237 273 5,100  Level FlightAware ADS-B
Fri 07:15:45 AM 32.0950 34.7330 123° Southeast 229 264 5,100  Level FlightAware ADS-B
Fri 07:16:03 AM 32.0830 34.7510 128° Southeast 233 268 5,100 -500 Level FlightAware ADS-B
Fri 07:16:21 AM 32.0700 34.7660 136° Southeast 228 262 4,800 -732 Descending FlightAware ADS-B
Fri 07:16:44 AM 32.0520 34.7860 137° Southeast 226 260 4,600 -250 Descending FlightAware ADS-B
Fri 07:17:09 AM 32.0330 34.8080 136° Southeast 207 238 4,600  Level FlightAware ADS-B
Fri 07:17:27 AM 32.0220 34.8200 137° Southeast 199 229 4,600 -600 Level FlightAware ADS-B
Fri 07:17:39 AM 32.0120 34.8300 140° Southeast 197 227 4,300 -1,350 Descending FlightAware ADS-B
Fri 07:18:07 AM 31.9980 34.8490 131° Southeast 194 223 3,700 -1,371 Descending FlightAware ADS-B
Fri 07:18:14 AM 31.9960 34.8580 105° East 190 219 3,500 -1,556 Descending FlightAware ADS-B
Fri 07:18:34 AM 31.9990 34.8790 80° East 187 215 3,000 -1,364 Descending FlightAware ADS-B
Fri 07:18:58 AM 32.0050 34.9060 75° East 196 226 2,500 -1,174 Descending FlightAware ADS-B
Fri 07:19:20 AM 32.0120 34.9260 68° East 180 207 2,100 -1,071 Descending FlightAware ADS-B
Fri 07:19:26 AM 32.0140 34.9300 59° Northeast 173 199 2,000 -1,000 Descending FlightAware ADS-B
Fri 07:19:32 AM 32.0190 34.9340 34° Northeast 168 193 1,900 -750 Descending FlightAware ADS-B
Fri 07:19:42 AM 32.0260 34.9360 14° North 162 186 1,800 -882 Descending FlightAware ADS-B
Fri 07:20:06 AM 32.0420 34.9300 342° North 148 170 1,400 -1,000 Descending FlightAware ADS-B
Fri 07:20:12 AM 32.0450 34.9270 320° Northwest 151 174 1,300 -750 Descending FlightAware ADS-B
Fri 07:20:30 AM 32.0470 34.9120 279° West 153 176 1,100 -750 Descending FlightAware ADS-B
Fri 07:20:36 AM 32.0460 34.9070 257° West 155 178 1,000 -1,000 Descending FlightAware ADS-B
Fri 07:20:48 AM 32.0450 34.8970 263° West 154 177 800 -811 Descending FlightAware ADS-B
Fri 07:21:13 AM 32.0410 34.8770 257° West 153 176 500 -698 Descending FlightAware ADS-B
Fri 07:21:31 AM 32.0390 34.8660 258° West 153 176 300 -667 Descending FlightAware ADS-B

Login

Don't have an account? Register now (free) for customized features, flight alerts, and more!